Time,TemperatureF,DewpointF,PressureIn,WindDirection,WindDirectionDegrees,WindSpeedMPH,WindSpeedGustMPH,Humidity,HourlyPrecipIn,Conditions,Clouds,dailyrainin,SoftwareType,DateUTC
2013-12-22 00:00:00,23.7,18.7,28.61,NNE,30,3.0,6.0,81,0.00,CLR,,0.00,WeatherDisplay:10.37,2013-12-22 06:00:00,
2013-12-22 00:03:00,23.7,18.7,28.61,NE,45,4.6,4.6,81,0.00,CLR,,0.00,WeatherDisplay:10.37,2013-12-22 06:03:00,
2013-12-22 00:04:00,23.7,18.7,28.61,NNW,338,5.9,5.9,81,0.00,CLR,,0.00,WeatherDisplay:10.37,2013-12-22 06:04:00,
2013-12-22 00:05:00,23.7,18.7,28.61,NE,45,5.8,5.8,81,0.00,CLR,,0.00,WeatherDisplay:10.37,2013-12-22 06:05:00,
2013-12-22 00:06:00,23.7,18.7,28.61,NNE,22,2.4,2.4,81,0.00,CLR,,0.00,WeatherDisplay:10.37,2013-12-22 06:06:00,
2013-12-22 00:08:00,23.7,18.7,28.61,North,0,3.5,3.5,81,0.00,CLR,,0.00,WeatherDisplay:10.37,2013-12-22 06:08:00,
2013-12-22 00:09:00,23.7,18.7,28.61,NE,45,3.5,3.5,81,0.00,CLR,,0.00,WeatherDisplay:10.37,2013-12-22 06:09:00,
2013-12-22 00:10:00,23.7,18.7,28.64,NNW,338,3.5,3.5,81,0.00,CLR,,0.00,WeatherDisplay:10.37,2013-12-22 06:10:00,
2013-12-22 00:11:00,23.7,18.7,28.64,NNE,22,4.6,4.6,81,0.00,CLR,,0.00,WeatherDisplay:10.37,2013-12-22 06:11:00,
2013-12-22 00:13:00,23.7,18.7,28.64,North,0,8.1,8.1,81,0.00,CLR,,0.00,WeatherDisplay:10.37,2013-12-22 06:13:00,
2013-12-22 00:14:00,23.7,18.7,28.64,NNE,22,3.5,3.5,81,0.00,CLR,,0.00,WeatherDisplay:10.37,2013-12-22 06:14:00,
2013-12-22 00:15:00,23.7,18.7,28.64,NE,45,2.9,2.9,81,0.00,CLR,,0.00,WeatherDisplay:10.37,2013-12-22 06:15:00,
2013-12-22 00:16:00,23.7,18.7,28.64,NNW,338,2.4,2.4,81,0.00,CLR,,0.00,WeatherDisplay:10.37,2013-12-22 06:16:00,
2013-12-22 00:18:00,23.7,19.0,28.64,NNE,22,4.6,4.6,82,0.00,CLR,,0.00,WeatherDisplay:10.37,2013-12-22 06:18:00,
2013-12-22 00:19:00,23.5,18.9,28.64,NE,45,4.6,4.6,82,0.00,CLR,,0.00,WeatherDisplay:10.37,2013-12-22 06:19:00,
2013-12-22 00:20:00,23.5,18.9,28.64,NNE,22,4.6,4.6,82,0.00,CLR,,0.00,WeatherDisplay:10.37,2013-12-22 06:20:00,
2013-12-22 00:22:00,23.5,18.9,28.64,NE,45,3.5,3.5,82,0.00,CLR,,0.00,WeatherDisplay:10.37,2013-12-22 06:22:00,
2013-12-22 00:23:00,23.5,18.9,28.64,NE,45,5.8,5.8,82,0.00,CLR,,0.00,WeatherDisplay:10.37,2013-12-22 06:23:00,
2013-12-22 00:24:00,23.5,18.9,28.61,NE,45,5.8,5.8,82,0.00,CLR,,0.00,WeatherDisplay:10.37,2013-12-22 06:24:00,
2013-12-22 00:26:00,23.5,18.9,28.61,NE,45,4.6,4.6,82,0.00,CLR,,0.00,WeatherDisplay:10.37,2013-12-22 06:26:00,
2013-12-22 00:27:00,23.5,18.6,28.61,NNE,22,5.8,5.8,81,0.00,CLR,,0.00,WeatherDisplay:10.37,2013-12-22 06:27:00,
2013-12-22 00:28:00,23.5,18.6,28.61,NNE,22,3.5,3.5,81,0.00,CLR,,0.00,WeatherDisplay:10.37,2013-12-22 06:28:00,
2013-12-22 00:29:00,23.5,18.9,28.61,NNE,22,3.5,3.5,82,0.00,CLR,,0.00,WeatherDisplay:10.37,2013-12-22 06:29:00,
2013-12-22 00:31:00,23.5,18.9,28.61,North,0,6.9,6.9,82,0.00,CLR,,0.00,WeatherDisplay:10.37,2013-12-22 06:31:00,
2013-12-22 00:32:00,23.5,18.6,28.61,NNW,338,5.6,5.6,81,0.00,CLR,,0.00,WeatherDisplay:10.37,2013-12-22 06:32:00,
2013-12-22 00:34:00,23.5,18.6,28.61,North,0,4.6,4.6,81,0.00,CLR,,0.00,WeatherDisplay:10.37,2013-12-22 06:34:00,
2013-12-22 00:35:00,23.5,18.6,28.61,NW,315,4.6,4.6,81,0.00,CLR,,0.00,WeatherDisplay:10.37,2013-12-22 06:35:00,
2013-12-22 00:36:00,23.5,18.6,28.61,North,0,5.8,5.8,81,0.00,CLR,,0.00,WeatherDisplay:10.37,2013-12-22 06:36:00,
2013-12-22 00:37:00,23.5,18.6,28.61,North,0,5.8,5.8,81,0.00,CLR,,0.00,WeatherDisplay:10.37,2013-12-22 06:37:00,
2013-12-22 00:38:00,23.5,18.6,28.61,NNE,22,4.6,4.6,81,0.00,CLR,,0.00,WeatherDisplay:10.37,2013-12-22 06:38:00,
2013-12-22 00:39:00,23.5,18.9,28.61,North,0,6.2,6.2,82,0.00,CLR,,0.00,WeatherDisplay:10.37,2013-12-22 06:39:00,
2013-12-22 00:40:00,23.5,18.9,28.61,NE,45,4.7,4.7,82,0.00,CLR,,0.00,WeatherDisplay:10.37,2013-12-22 06:40:00,
2013-12-22 00:41:00,23.5,18.9,28.61,North,0,6.9,6.9,82,0.00,CLR,,0.00,WeatherDisplay:10.37,2013-12-22 06:41:00,
2013-12-22 00:42:00,23.5,18.9,28.61,NE,45,6.9,6.9,82,0.00,CLR,,0.00,WeatherDisplay:10.37,2013-12-22 06:42:00,
2013-12-22 00:43:00,23.5,18.9,28.61,NNE,22,5.8,5.8,82,0.00,CLR,,0.00,WeatherDisplay:10.37,2013-12-22 06:43:00,
2013-12-22 00:44:00,23.5,18.6,28.61,NNE,22,6.2,6.2,81,0.00,CLR,,0.00,WeatherDisplay:10.37,2013-12-22 06:44:00,
2013-12-22 00:45:00,23.5,18.6,28.61,NE,45,8.1,8.1,81,0.00,CLR,,0.00,WeatherDisplay:10.37,2013-12-22 06:45:00,
2013-12-22 00:47:00,23.5,18.6,28.61,North,0,8.1,8.1,81,0.00,CLR,,0.00,WeatherDisplay:10.37,2013-12-22 06:47:00,
2013-12-22 00:48:00,23.5,18.6,28.61,NE,45,4.6,4.6,81,0.00,CLR,,0.00,WeatherDisplay:10.37,2013-12-22 06:48:00,
2013-12-22 00:49:00,23.5,18.6,28.61,NNE,22,5.9,5.9,81,0.00,CLR,,0.00,WeatherDisplay:10.37,2013-12-22 06:49:00,
2013-12-22 00:50:00,23.5,18.6,28.61,NNE,22,6.7,6.7,81,0.00,CLR,,0.00,WeatherDisplay:10.37,2013-12-22 06:50:00,
2013-12-22 00:52:00,23.5,18.6,28.61,NNE,22,6.9,6.9,81,0.00,CLR,,0.00,WeatherDisplay:10.37,2013-12-22 06:52:00,
2013-12-22 00:53:00,23.5,18.6,28.61,NNE,22,8.1,8.1,81,0.00,CLR,,0.00,WeatherDisplay:10.37,2013-12-22 06:53:00,
2013-12-22 00:54:00,23.5,18.6,28.61,NNE,22,6.9,6.9,81,0.00,CLR,,0.00,WeatherDisplay:10.37,2013-12-22 06:54:00,
2013-12-22 00:55:00,23.5,18.6,28.61,NNE,22,6.9,6.9,81,0.00,CLR,,0.00,WeatherDisplay:10.37,2013-12-22 06:55:00,
2013-12-22 00:57:00,23.5,18.6,28.61,North,0,4.9,4.9,81,0.00,CLR,,0.00,WeatherDisplay:10.37,2013-12-22 06:57:00,
2013-12-22 00:58:00,23.5,18.6,28.61,NE,45,5.8,5.8,81,0.00,CLR,,0.00,WeatherDisplay:10.37,2013-12-22 06:58:00,
2013-12-22 00:59:00,23.5,18.6,28.61,NNE,22,5.8,5.8,81,0.00,CLR,,0.00,WeatherDisplay:10.37,2013-12-22 06:59:00,
2013-12-22 01:00:00,23.5,18.6,28.61,NNE,22,8.1,8.1,81,0.00,CLR,,0.00,WeatherDisplay:10.37,2013-12-22 07:00:00,
2013-12-22 01:03:00,23.5,18.6,28.61,NE,45,4.6,4.6,81,0.00,CLR,,0.00,WeatherDisplay:10.37,2013-12-22 07:03:00,
2013-12-22 01:04:00,23.5,18.6,28.61,NNE,22,5.8,5.9,81,0.00,CLR,,0.00,WeatherDisplay:10.37,2013-12-22 07:04:00,
2013-12-22 01:05:00,23.5,18.6,28.61,NE,45,6.2,6.2,81,0.00,CLR,,0.00,WeatherDisplay:10.37,2013-12-22 07:05:00,
2013-12-22 01:08:00,23.5,18.6,28.61,NE,45,5.8,5.8,81,0.00,CLR,,0.00,WeatherDisplay:10.37,2013-12-22 07:08:00,
2013-12-22 01:09:00,23.5,18.6,28.61,NNE,22,4.6,4.6,81,0.00,CLR,,0.00,WeatherDisplay:10.37,2013-12-22 07:09:00,
2013-12-22 01:10:00,23.5,18.6,28.58,NE,45,4.7,4.7,81,0.00,CLR,,0.00,WeatherDisplay:10.37,2013-12-22 07:10:00,
2013-12-22 01:11:00,23.5,18.9,28.58,NE,45,5.9,5.9,82,0.00,CLR,,0.00,WeatherDisplay:10.37,2013-12-22 07:11:00,
2013-12-22 01:13:00,23.4,18.7,28.58,NE,45,5.8,5.8,82,0.00,CLR,,0.00,WeatherDisplay:10.37,2013-12-22 07:13:00,
2013-12-22 01:14:00,23.5,18.9,28.58,NE,45,6.9,6.9,82,0.00,CLR,,0.00,WeatherDisplay:10.37,2013-12-22 07:14:00,
2013-12-22 01:15:00,23.5,18.9,28.58,NNE,22,6.9,6.9,82,0.00,CLR,,0.00,WeatherDisplay:10.37,2013-12-22 07:15:00,
2013-12-22 01:16:00,23.5,18.9,28.58,NNE,22,8.1,8.1,82,0.00,CLR,,0.00,WeatherDisplay:10.37,2013-12-22 07:16:00,
2013-12-22 01:18:00,23.5,18.9,28.58,NNE,22,6.9,6.9,82,0.00,CLR,,0.00,WeatherDisplay:10.37,2013-12-22 07:18:00,
2013-12-22 01:19:00,23.5,18.9,28.58,NE,45,6.9,6.9,82,0.00,CLR,,0.00,WeatherDisplay:10.37,2013-12-22 07:19:00,
2013-12-22 01:20:00,23.5,18.9,28.58,NE,45,6.9,6.9,82,0.00,CLR,,0.00,WeatherDisplay:10.37,2013-12-22 07:20:00,
2013-12-22 01:22:00,23.5,18.9,28.58,NNE,22,5.8,5.8,82,0.00,CLR,,0.00,WeatherDisplay:10.37,2013-12-22 07:22:00,
2013-12-22 01:24:00,23.5,18.9,28.58,NNE,22,6.9,6.9,82,0.00,CLR,,0.00,WeatherDisplay:10.37,2013-12-22 07:24:00,
2013-12-22 01:25:00,23.5,18.9,28.58,North,0,6.9,6.9,82,0.00,CLR,,0.00,WeatherDisplay:10.37,2013-12-22 07:25:00,
2013-12-22 01:26:00,23.5,18.9,28.58,NNE,22,6.9,6.9,82,0.00,CLR,,0.00,WeatherDisplay:10.37,2013-12-22 07:26:00,
2013-12-22 01:27:00,23.5,18.9,28.58,North,0,4.6,4.6,82,0.00,CLR,,0.00,WeatherDisplay:10.37,2013-12-22 07:27:00,
2013-12-22 01:29:00,23.5,19.1,28.58,NNE,22,6.9,6.9,83,0.00,CLR,,0.00,WeatherDisplay:10.37,2013-12-22 07:29:00,
2013-12-22 01:30:00,23.5,19.1,28.58,NE,45,5.4,5.4,83,0.00,CLR,,0.00,WeatherDisplay:10.37,2013-12-22 07:30:00,
2013-12-22 01:31:00,23.5,19.1,28.58,ENE,68,5.8,5.8,83,0.00,CLR,,0.00,WeatherDisplay:10.37,2013-12-22 07:31:00,
2013-12-22 01:32:00,23.5,19.1,28.58,NNE,22,4.6,4.6,83,0.00,CLR,,0.00,WeatherDisplay:10.37,2013-12-22 07:32:00,
2013-12-22 01:34:00,23.5,19.1,28.58,NE,45,5.8,5.8,83,0.00,CLR,,0.00,WeatherDisplay:10.37,2013-12-22 07:34:00,
2013-12-22 01:35:00,23.5,19.1,28.58,NNE,28,5.0,6.0,83,0.00,CLR,,0.00,WeatherDisplay:10.37,2013-12-22 07:35:00,
2013-12-22 01:36:00,23.5,19.1,28.58,NE,45,3.5,3.5,83,0.00,CLR,,0.00,WeatherDisplay:10.37,2013-12-22 07:36:00,
2013-12-22 01:37:00,23.5,19.1,28.58,North,0,2.6,2.6,83,0.00,CLR,,0.00,WeatherDisplay:10.37,2013-12-22 07:37:00,
2013-12-22 01:40:00,23.5,19.1,28.58,NNE,22,4.3,4.3,83,0.00,CLR,,0.00,WeatherDisplay:10.37,2013-12-22 07:40:00,
2013-12-22 01:41:00,23.4,19.2,28.58,NNE,22,4.7,4.7,84,0.00,CLR,,0.00,WeatherDisplay:10.37,2013-12-22 07:41:00,
2013-12-22 01:42:00,23.4,19.2,28.58,NNE,22,5.8,5.8,84,0.00,CLR,,0.00,WeatherDisplay:10.37,2013-12-22 07:42:00,
2013-12-22 01:43:00,23.4,19.2,28.58,NNE,22,5.8,5.8,84,0.00,CLR,,0.00,WeatherDisplay:10.37,2013-12-22 07:43:00,
2013-12-22 01:45:00,23.4,19.2,28.58,NNE,22,4.6,4.6,84,0.00,CLR,,0.00,WeatherDisplay:10.37,2013-12-22 07:45:00,
2013-12-22 01:46:00,23.4,19.5,28.58,NNW,338,4.6,4.6,85,0.00,CLR,,0.00,WeatherDisplay:10.37,2013-12-22 07:46:00,
2013-12-22 01:47:00,23.4,19.5,28.58,NNE,22,3.6,3.6,85,0.00,CLR,,0.00,WeatherDisplay:10.37,2013-12-22 07:47:00,
2013-12-22 01:48:00,23.4,19.5,28.58,NE,45,5.4,5.4,85,0.00,CLR,,0.00,WeatherDisplay:10.37,2013-12-22 07:48:00,
2013-12-22 01:50:00,23.4,19.5,28.58,North,0,4.6,4.6,85,0.00,CLR,,0.00,WeatherDisplay:10.37,2013-12-22 07:50:00,
2013-12-22 01:52:00,23.4,19.5,28.58,NNE,22,5.8,5.8,85,0.00,CLR,,0.00,WeatherDisplay:10.37,2013-12-22 07:52:00,
2013-12-22 01:53:00,23.4,19.5,28.58,NNE,22,6.4,6.4,85,0.00,CLR,,0.00,WeatherDisplay:10.37,2013-12-22 07:53:00,
2013-12-22 01:55:00,23.4,19.5,28.58,NNE,22,5.8,5.8,85,0.00,CLR,,0.00,WeatherDisplay:10.37,2013-12-22 07:55:00,
2013-12-22 01:56:00,23.4,19.5,28.58,NNE,22,5.9,5.9,85,0.00,CLR,,0.00,WeatherDisplay:10.37,2013-12-22 07:56:00,
2013-12-22 01:57:00,23.4,19.5,28.58,NE,45,5.8,5.8,85,0.00,CLR,,0.00,WeatherDisplay:10.37,2013-12-22 07:57:00,
2013-12-22 01:58:00,23.4,19.5,28.58,North,0,6.0,6.0,85,0.00,CLR,,0.00,WeatherDisplay:10.37,2013-12-22 07:58:00,
2013-12-22 02:00:00,23.5,19.7,28.58,NNE,22,5.8,5.8,85,0.00,CLR,,0.00,WeatherDisplay:10.37,2013-12-22 08:00:00,
2013-12-22 02:02:00,23.4,19.8,28.58,North,0,4.6,4.6,86,0.00,CLR,,0.00,WeatherDisplay:10.37,2013-12-22 08:02:00,
2013-12-22 02:03:00,23.4,19.8,28.58,NE,45,4.6,4.6,86,0.00,CLR,,0.00,WeatherDisplay:10.37,2013-12-22 08:03:00,
2013-12-22 02:05:00,23.4,19.8,28.58,NNE,22,6.0,6.0,86,0.00,CLR,,0.00,WeatherDisplay:10.37,2013-12-22 08:05:00,
2013-12-22 02:07:00,23.4,19.8,28.58,North,0,6.9,6.9,86,0.00,CLR,,0.00,WeatherDisplay:10.37,2013-12-22 08:07:00,
2013-12-22 02:08:00,23.4,19.8,28.58,NNE,22,6.9,6.9,86,0.00,CLR,,0.00,WeatherDisplay:10.37,2013-12-22 08:08:00,
2013-12-22 02:09:00,23.4,19.8,28.61,NNW,338,5.8,5.8,86,0.00,CLR,,0.00,WeatherDisplay:10.37,2013-12-22 08:09:00,
2013-12-22 02:10:00,23.4,19.8,28.61,North,0,6.9,6.9,86,0.00,CLR,,0.00,WeatherDisplay:10.37,2013-12-22 08:10:00,
2013-12-22 02:12:00,23.5,20.0,28.61,NNE,22,5.8,5.8,86,0.00,CLR,,0.00,WeatherDisplay:10.37,2013-12-22 08:12:00,
2013-12-22 02:13:00,23.5,20.0,28.61,NE,45,4.6,4.6,86,0.00,CLR,,0.00,WeatherDisplay:10.37,2013-12-22 08:13:00,
2013-12-22 02:14:00,23.5,20.0,28.61,North,0,4.6,4.6,86,0.00,CLR,,0.00,WeatherDisplay:10.37,2013-12-22 08:14:00,
2013-12-22 02:15:00,23.5,20.0,28.61,North,0,5.8,5.8,86,0.00,CLR,,0.00,WeatherDisplay:10.37,2013-12-22 08:15:00,
2013-12-22 02:17:00,23.5,20.0,28.61,NNE,22,5.8,5.8,86,0.00,CLR,,0.00,WeatherDisplay:10.37,2013-12-22 08:17:00,
2013-12-22 02:18:00,23.5,20.0,28.61,North,0,4.6,4.6,86,0.00,CLR,,0.00,WeatherDisplay:10.37,2013-12-22 08:18:00,
2013-12-22 02:20:00,23.5,20.0,28.61,NNE,22,5.8,5.8,86,0.00,CLR,,0.00,WeatherDisplay:10.37,2013-12-22 08:20:00,
2013-12-22 02:22:00,23.5,20.0,28.61,NNE,22,5.8,5.8,86,0.00,CLR,,0.00,WeatherDisplay:10.37,2013-12-22 08:22:00,
2013-12-22 02:23:00,23.5,20.0,28.61,NW,315,5.6,5.6,86,0.00,CLR,,0.00,WeatherDisplay:10.37,2013-12-22 08:23:00,
2013-12-22 02:25:00,23.5,20.0,28.61,NW,315,5.9,5.9,86,0.00,CLR,,0.00,WeatherDisplay:10.37,2013-12-22 08:25:00,
2013-12-22 02:26:00,23.5,20.2,28.61,NNE,22,4.6,4.7,87,0.00,CLR,,0.00,WeatherDisplay:10.37,2013-12-22 08:26:00,
2013-12-22 02:27:00,23.5,20.2,28.61,North,0,4.6,4.6,87,0.00,CLR,,0.00,WeatherDisplay:10.37,2013-12-22 08:27:00,
2013-12-22 02:28:00,23.5,20.2,28.61,NNW,338,4.9,4.9,87,0.00,CLR,,0.00,WeatherDisplay:10.37,2013-12-22 08:28:00,
2013-12-22 02:30:00,23.5,20.2,28.61,NNE,22,6.9,6.9,87,0.00,CLR,,0.00,WeatherDisplay:10.37,2013-12-22 08:30:00,
2013-12-22 02:31:00,23.5,20.2,28.61,NNE,22,6.9,6.9,87,0.00,CLR,,0.00,WeatherDisplay:10.37,2013-12-22 08:31:00,
2013-12-22 02:32:00,23.5,20.2,28.61,NNW,338,5.8,5.8,87,0.00,CLR,,0.00,WeatherDisplay:10.37,2013-12-22 08:32:00,
2013-12-22 02:33:00,23.5,20.2,28.61,NNW,338,5.8,5.8,87,0.00,CLR,,0.00,WeatherDisplay:10.37,2013-12-22 08:33:00,
2013-12-22 02:34:00,23.5,20.2,28.61,NNE,22,4.6,4.6,87,0.00,CLR,,0.00,WeatherDisplay:10.37,2013-12-22 08:34:00,
2013-12-22 02:35:00,23.5,20.2,28.61,North,0,5.8,5.8,87,0.00,CLR,,0.00,WeatherDisplay:10.37,2013-12-22 08:35:00,
2013-12-22 02:36:00,23.5,20.2,28.61,NNE,22,4.7,4.7,87,0.00,CLR,,0.00,WeatherDisplay:10.37,2013-12-22 08:36:00,
2013-12-22 02:38:00,23.5,20.2,28.61,North,0,6.2,6.2,87,0.00,CLR,,0.00,WeatherDisplay:10.37,2013-12-22 08:38:00,
2013-12-22 02:39:00,23.5,20.2,28.61,NNW,338,6.0,6.0,87,0.00,CLR,,0.00,WeatherDisplay:10.37,2013-12-22 08:39:00,
2013-12-22 02:40:00,23.5,20.2,28.61,North,0,5.8,5.8,87,0.00,CLR,,0.00,WeatherDisplay:10.37,2013-12-22 08:40:00,
2013-12-22 02:41:00,23.5,20.2,28.61,North,0,3.5,4.3,87,0.00,CLR,,0.00,WeatherDisplay:10.37,2013-12-22 08:41:00,
2013-12-22 02:43:00,23.5,20.5,28.61,North,0,4.9,4.9,88,0.00,CLR,,0.00,WeatherDisplay:10.37,2013-12-22 08:43:00,
2013-12-22 02:44:00,23.5,20.5,28.61,NW,315,4.6,4.6,88,0.00,CLR,,0.00,WeatherDisplay:10.37,2013-12-22 08:44:00,
2013-12-22 02:45:00,23.5,20.5,28.61,North,0,5.6,5.6,88,0.00,CLR,,0.00,WeatherDisplay:10.37,2013-12-22 08:45:00,
2013-12-22 02:46:00,23.5,20.5,28.61,NNW,338,5.8,5.8,88,0.00,CLR,,0.00,WeatherDisplay:10.37,2013-12-22 08:46:00,
2013-12-22 02:48:00,23.5,20.5,28.61,NNW,338,5.8,5.8,88,0.00,CLR,,0.00,WeatherDisplay:10.37,2013-12-22 08:48:00,
2013-12-22 02:49:00,23.5,20.5,28.61,North,0,5.8,5.8,88,0.00,CLR,,0.00,WeatherDisplay:10.37,2013-12-22 08:49:00,
2013-12-22 02:50:00,23.5,20.5,28.61,NNW,338,5.8,5.8,88,0.00,CLR,,0.00,WeatherDisplay:10.37,2013-12-22 08:50:00,
2013-12-22 02:51:00,23.5,20.5,28.61,NNW,338,5.8,5.8,88,0.00,CLR,,0.00,WeatherDisplay:10.37,2013-12-22 08:51:00,
2013-12-22 02:52:00,23.5,20.5,28.61,North,0,5.8,5.8,88,0.00,CLR,,0.00,WeatherDisplay:10.37,2013-12-22 08:52:00,
2013-12-22 02:53:00,23.5,20.5,28.61,NNE,22,4.6,4.6,88,0.00,CLR,,0.00,WeatherDisplay:10.37,2013-12-22 08:53:00,
2013-12-22 02:55:00,23.5,20.5,28.61,NW,315,5.8,5.8,88,0.00,CLR,,0.00,WeatherDisplay:10.37,2013-12-22 08:55:00,
2013-12-22 02:56:00,23.5,20.5,28.61,NNW,338,5.8,5.8,88,0.00,CLR,,0.00,WeatherDisplay:10.37,2013-12-22 08:56:00,
2013-12-22 02:57:00,23.5,20.5,28.61,North,0,5.8,5.8,88,0.00,CLR,,0.00,WeatherDisplay:10.37,2013-12-22 08:57:00,
2013-12-22 02:59:00,23.5,20.5,28.61,NW,315,6.0,6.0,88,0.00,CLR,,0.00,WeatherDisplay:10.37,2013-12-22 08:59:00,
2013-12-22 03:00:00,23.5,20.5,28.61,NNW,338,6.0,6.0,88,0.00,CLR,,0.00,WeatherDisplay:10.37,2013-12-22 09:00:00,
2013-12-22 03:02:00,23.5,20.5,28.61,NNW,338,8.1,8.1,88,0.00,CLR,,0.00,WeatherDisplay:10.37,2013-12-22 09:02:00,
2013-12-22 03:04:00,23.5,20.5,28.61,NW,315,5.9,5.9,88,0.00,CLR,,0.00,WeatherDisplay:10.37,2013-12-22 09:04:00,
2013-12-22 03:05:00,23.5,20.5,28.61,NNE,22,5.8,5.8,88,0.00,CLR,,0.00,WeatherDisplay:10.37,2013-12-22 09:05:00,
2013-12-22 03:07:00,23.4,20.3,28.61,North,0,5.4,5.4,88,0.00,CLR,,0.00,WeatherDisplay:10.37,2013-12-22 09:07:00,
2013-12-22 03:09:00,23.4,20.3,28.61,NNW,338,6.9,6.9,88,0.00,CLR,,0.00,WeatherDisplay:10.37,2013-12-22 09:09:00,
2013-12-22 03:10:00,23.4,20.3,28.58,North,0,6.9,6.9,88,0.00,CLR,,0.00,WeatherDisplay:10.37,2013-12-22 09:10:00,
2013-12-22 03:12:00,23.4,20.3,28.58,NW,315,6.9,6.9,88,0.00,CLR,,0.00,WeatherDisplay:10.37,2013-12-22 09:12:00,
2013-12-22 03:13:00,23.4,20.3,28.58,North,0,7.1,7.1,88,0.00,CLR,,0.00,WeatherDisplay:10.37,2013-12-22 09:13:00,
2013-12-22 03:14:00,23.4,20.3,28.58,NNE,22,8.1,8.1,88,0.00,CLR,,0.00,WeatherDisplay:10.37,2013-12-22 09:14:00,
2013-12-22 03:15:00,23.4,20.3,28.58,NNW,338,8.1,8.1,88,0.00,CLR,,0.00,WeatherDisplay:10.37,2013-12-22 09:15:00,
2013-12-22 03:17:00,23.4,20.3,28.58,NW,315,5.8,5.8,88,0.00,CLR,,0.00,WeatherDisplay:10.37,2013-12-22 09:17:00,
2013-12-22 03:18:00,23.4,20.3,28.58,NNW,338,5.4,5.4,88,0.00,CLR,,0.00,WeatherDisplay:10.37,2013-12-22 09:18:00,
2013-12-22 03:19:00,23.4,20.3,28.58,NNW,338,6.9,6.9,88,0.00,CLR,,0.00,WeatherDisplay:10.37,2013-12-22 09:19:00,
2013-12-22 03:21:00,23.4,20.3,28.58,NNW,338,8.1,8.1,88,0.00,CLR,,0.00,WeatherDisplay:10.37,2013-12-22 09:21:00,
2013-12-22 03:23:00,23.4,20.3,28.58,NNE,22,6.9,6.9,88,0.00,CLR,,0.00,WeatherDisplay:10.37,2013-12-22 09:23:00,
2013-12-22 03:24:00,23.4,20.3,28.58,North,0,5.8,5.8,88,0.00,CLR,,0.00,WeatherDisplay:10.37,2013-12-22 09:24:00,
2013-12-22 03:26:00,23.4,20.3,28.58,NNW,338,6.9,6.9,88,0.00,CLR,,0.00,WeatherDisplay:10.37,2013-12-22 09:26:00,
2013-12-22 03:28:00,23.4,20.3,28.58,North,0,6.9,6.9,88,0.00,CLR,,0.00,WeatherDisplay:10.37,2013-12-22 09:28:00,
2013-12-22 03:29:00,23.4,20.3,28.58,North,0,6.9,6.9,88,0.00,CLR,,0.00,WeatherDisplay:10.37,2013-12-22 09:29:00,
2013-12-22 03:30:00,23.4,20.3,28.58,NW,315,4.6,4.6,88,0.00,CLR,,0.00,WeatherDisplay:10.37,2013-12-22 09:30:00,
2013-12-22 03:31:00,23.4,20.3,28.58,NNW,338,4.6,4.6,88,0.00,CLR,,0.00,WeatherDisplay:10.37,2013-12-22 09:31:00,
2013-12-22 03:33:00,23.4,20.3,28.58,North,0,5.8,5.8,88,0.00,CLR,,0.00,WeatherDisplay:10.37,2013-12-22 09:33:00,
2013-12-22 03:34:00,23.4,20.3,28.58,NNW,338,5.8,5.8,88,0.00,CLR,,0.00,WeatherDisplay:10.37,2013-12-22 09:34:00,
2013-12-22 03:35:00,23.4,20.3,28.58,NNW,338,5.9,5.9,88,0.00,CLR,,0.00,WeatherDisplay:10.37,2013-12-22 09:35:00,
2013-12-22 03:36:00,23.4,20.3,28.58,North,0,6.4,6.4,88,0.00,CLR,,0.00,WeatherDisplay:10.37,2013-12-22 09:36:00,
2013-12-22 03:39:00,23.4,20.3,28.58,NW,315,5.8,5.8,88,0.00,CLR,,0.00,WeatherDisplay:10.37,2013-12-22 09:39:00,
2013-12-22 03:41:00,23.4,20.3,28.58,NW,315,4.6,4.6,88,0.00,CLR,,0.00,WeatherDisplay:10.37,2013-12-22 09:41:00,
2013-12-22 03:42:00,23.4,20.3,28.58,NNW,338,5.8,5.8,88,0.00,CLR,,0.00,WeatherDisplay:10.37,2013-12-22 09:42:00,
2013-12-22 03:44:00,23.4,20.3,28.58,North,0,5.8,5.8,88,0.00,CLR,,0.00,WeatherDisplay:10.37,2013-12-22 09:44:00,
2013-12-22 03:45:00,23.4,20.3,28.58,NNW,338,4.6,4.6,88,0.00,CLR,,0.00,WeatherDisplay:10.37,2013-12-22 09:45:00,
2013-12-22 03:46:00,23.4,20.3,28.58,NNW,338,6.9,6.9,88,0.00,CLR,,0.00,WeatherDisplay:10.37,2013-12-22 09:46:00,
2013-12-22 03:47:00,23.4,20.3,28.58,North,0,8.1,8.1,88,0.00,CLR,,0.00,WeatherDisplay:10.37,2013-12-22 09:47:00,
2013-12-22 03:49:00,23.4,20.3,28.58,NNW,338,9.2,9.2,88,0.00,CLR,,0.00,WeatherDisplay:10.37,2013-12-22 09:49:00,
2013-12-22 03:50:00,23.4,20.3,28.58,NNW,333,5.0,9.0,88,0.00,CLR,,0.00,WeatherDisplay:10.37,2013-12-22 09:50:00,
2013-12-22 03:51:00,23.4,20.3,28.58,North,0,6.9,6.9,88,0.00,CLR,,0.00,WeatherDisplay:10.37,2013-12-22 09:51:00,
2013-12-22 03:53:00,23.4,20.3,28.58,North,0,6.9,6.9,88,0.00,CLR,,0.00,WeatherDisplay:10.37,2013-12-22 09:53:00,
2013-12-22 03:54:00,23.4,20.3,28.58,North,0,6.9,6.9,88,0.00,CLR,,0.00,WeatherDisplay:10.37,2013-12-22 09:54:00,
2013-12-22 03:55:00,23.4,20.3,28.58,NE,45,4.7,4.7,88,0.00,CLR,,0.00,WeatherDisplay:10.37,2013-12-22 09:55:00,
2013-12-22 03:56:00,23.4,20.3,28.58,NW,315,5.8,5.8,88,0.00,CLR,,0.00,WeatherDisplay:10.37,2013-12-22 09:56:00,
2013-12-22 03:57:00,23.4,20.3,28.58,WNW,292,6.9,6.9,88,0.00,CLR,,0.00,WeatherDisplay:10.37,2013-12-22 09:57:00,
2013-12-22 03:58:00,23.4,20.3,28.58,North,0,4.6,4.6,88,0.00,CLR,,0.00,WeatherDisplay:10.37,2013-12-22 09:58:00,
2013-12-22 04:00:00,23.4,20.3,28.58,NNE,22,5.8,5.8,88,0.00,CLR,,0.00,WeatherDisplay:10.37,2013-12-22 10:00:00,
2013-12-22 04:01:00,23.4,20.3,28.58,NNW,338,6.2,6.2,88,0.00,CLR,,0.00,WeatherDisplay:10.37,2013-12-22 10:01:00,
2013-12-22 04:02:00,23.4,20.3,28.58,NNE,22,7.1,7.1,88,0.00,CLR,,0.00,WeatherDisplay:10.37,2013-12-22 10:02:00,
2013-12-22 04:04:00,23.4,20.3,28.58,NNW,338,5.8,5.8,88,0.00,CLR,,0.00,WeatherDisplay:10.37,2013-12-22 10:04:00,
2013-12-22 04:05:00,23.4,20.3,28.58,NNW,338,10.4,10.4,88,0.00,CLR,,0.00,WeatherDisplay:10.37,2013-12-22 10:05:00,
2013-12-22 04:07:00,23.4,20.3,28.58,North,0,6.9,6.9,88,0.00,CLR,,0.00,WeatherDisplay:10.37,2013-12-22 10:07:00,
2013-12-22 04:09:00,23.2,19.9,28.58,NNW,338,6.9,6.9,87,0.00,CLR,,0.00,WeatherDisplay:10.37,2013-12-22 10:09:00,
2013-12-22 04:10:00,23.2,19.9,28.58,NNW,338,9.2,9.2,87,0.00,CLR,,0.00,WeatherDisplay:10.37,2013-12-22 10:10:00,
2013-12-22 04:11:00,23.2,19.9,28.58,North,0,9.2,9.2,87,0.00,CLR,,0.00,WeatherDisplay:10.37,2013-12-22 10:11:00,
2013-12-22 04:12:00,23.2,19.9,28.58,NNE,22,8.1,8.1,87,0.00,CLR,,0.00,WeatherDisplay:10.37,2013-12-22 10:12:00,
2013-12-22 04:14:00,23.2,19.9,28.58,North,0,6.9,6.9,87,0.00,CLR,,0.00,WeatherDisplay:10.37,2013-12-22 10:14:00,
2013-12-22 04:15:00,23.2,20.2,28.58,North,0,5.8,5.8,88,0.00,CLR,,0.00,WeatherDisplay:10.37,2013-12-22 10:15:00,
2013-12-22 04:16:00,23.2,20.2,28.58,NNW,338,4.6,4.6,88,0.00,CLR,,0.00,WeatherDisplay:10.37,2013-12-22 10:16:00,
2013-12-22 04:17:00,23.2,20.2,28.58,NNW,338,6.9,6.9,88,0.00,CLR,,0.00,WeatherDisplay:10.37,2013-12-22 10:17:00,
2013-12-22 04:18:00,23.2,20.2,28.58,NNW,338,8.1,8.1,88,0.00,CLR,,0.00,WeatherDisplay:10.37,2013-12-22 10:18:00,
2013-12-22 04:19:00,23.2,20.2,28.58,North,0,8.1,8.1,88,0.00,CLR,,0.00,WeatherDisplay:10.37,2013-12-22 10:19:00,
2013-12-22 04:20:00,23.2,20.2,28.58,NNW,338,9.2,9.2,88,0.00,CLR,,0.00,WeatherDisplay:10.37,2013-12-22 10:20:00,
2013-12-22 04:21:00,23.2,20.2,28.58,North,0,8.1,8.1,88,0.00,CLR,,0.00,WeatherDisplay:10.37,2013-12-22 10:21:00,
2013-12-22 04:22:00,23.2,20.2,28.58,NNW,338,10.4,10.4,88,0.00,CLR,,0.00,WeatherDisplay:10.37,2013-12-22 10:22:00,
2013-12-22 04:23:00,23.2,20.2,28.58,North,0,10.4,10.4,88,0.00,CLR,,0.00,WeatherDisplay:10.37,2013-12-22 10:23:00,
2013-12-22 04:25:00,23.2,20.2,28.56,North,0,5.8,5.8,88,0.00,CLR,,0.00,WeatherDisplay:10.37,2013-12-22 10:25:00,
2013-12-22 04:26:00,23.2,20.2,28.56,North,0,10.0,10.0,88,0.00,CLR,,0.00,WeatherDisplay:10.37,2013-12-22 10:26:00,
2013-12-22 04:27:00,23.2,20.2,28.56,NW,315,10.4,10.4,88,0.00,CLR,,0.00,WeatherDisplay:10.37,2013-12-22 10:27:00,
2013-12-22 04:28:00,23.2,20.2,28.56,NNW,338,9.2,9.2,88,0.00,CLR,,0.00,WeatherDisplay:10.37,2013-12-22 10:28:00,
2013-12-22 04:30:00,23.2,20.2,28.56,North,0,9.2,9.2,88,0.00,CLR,,0.00,WeatherDisplay:10.37,2013-12-22 10:30:00,
2013-12-22 04:31:00,23.2,20.2,28.56,North,0,9.2,9.2,88,0.00,CLR,,0.00,WeatherDisplay:10.37,2013-12-22 10:31:00,
2013-12-22 04:32:00,23.2,20.2,28.56,NNW,338,7.8,7.8,88,0.00,CLR,,0.00,WeatherDisplay:10.37,2013-12-22 10:32:00,
2013-12-22 04:34:00,23.2,20.2,28.56,NNE,22,8.1,8.1,88,0.00,CLR,,0.00,WeatherDisplay:10.37,2013-12-22 10:34:00,
2013-12-22 04:35:00,23.2,20.4,28.56,North,0,6.0,6.0,89,0.00,CLR,,0.00,WeatherDisplay:10.37,2013-12-22 10:35:00,
2013-12-22 04:36:00,23.2,20.4,28.56,North,0,5.8,5.8,89,0.00,CLR,,0.00,WeatherDisplay:10.37,2013-12-22 10:36:00,
2013-12-22 04:38:00,23.2,20.4,28.56,NNE,22,8.1,8.1,89,0.00,CLR,,0.00,WeatherDisplay:10.37,2013-12-22 10:38:00,
2013-12-22 04:39:00,23.0,20.2,28.58,NNW,338,8.1,8.1,89,0.00,CLR,,0.00,WeatherDisplay:10.37,2013-12-22 10:39:00,
2013-12-22 04:40:00,23.0,20.2,28.58,NW,315,9.2,9.2,89,0.00,CLR,,0.00,WeatherDisplay:10.37,2013-12-22 10:40:00,
2013-12-22 04:41:00,23.0,20.2,28.58,NNW,338,8.1,8.1,89,0.00,CLR,,0.00,WeatherDisplay:10.37,2013-12-22 10:41:00,
2013-12-22 04:43:00,23.0,20.5,28.58,NNW,338,9.2,9.2,90,0.00,CLR,,0.00,WeatherDisplay:10.37,2013-12-22 10:43:00,
2013-12-22 04:45:00,23.0,20.5,28.58,NW,315,8.1,8.1,90,0.00,CLR,,0.00,WeatherDisplay:10.37,2013-12-22 10:45:00,
2013-12-22 04:46:00,23.0,20.5,28.58,NNW,338,5.8,6.2,90,0.00,CLR,,0.00,WeatherDisplay:10.37,2013-12-22 10:46:00,
2013-12-22 04:48:00,23.0,20.8,28.58,NW,315,6.9,6.9,91,0.00,CLR,,0.00,WeatherDisplay:10.37,2013-12-22 10:48:00,
2013-12-22 04:50:00,23.0,20.8,28.58,NNW,338,8.1,8.1,91,0.00,CLR,,0.00,WeatherDisplay:10.37,2013-12-22 10:50:00,
2013-12-22 04:51:00,23.0,20.8,28.58,NNW,338,8.1,8.1,91,0.00,CLR,,0.00,WeatherDisplay:10.37,2013-12-22 10:51:00,
2013-12-22 04:54:00,22.8,20.6,28.58,NW,315,10.4,10.4,91,0.00,CLR,,0.00,WeatherDisplay:10.37,2013-12-22 10:54:00,
2013-12-22 04:56:00,22.8,20.6,28.58,North,0,6.0,6.0,91,0.00,CLR,,0.00,WeatherDisplay:10.37,2013-12-22 10:56:00,
2013-12-22 04:57:00,22.8,20.6,28.58,North,0,5.8,5.8,91,0.00,CLR,,0.00,WeatherDisplay:10.37,2013-12-22 10:57:00,
2013-12-22 04:59:00,22.8,20.6,28.58,NNW,338,8.1,8.1,91,0.00,CLR,,0.00,WeatherDisplay:10.37,2013-12-22 10:59:00,
2013-12-22 05:01:00,22.8,20.6,28.58,North,0,8.1,8.1,91,0.00,CLR,,0.00,WeatherDisplay:10.37,2013-12-22 11:01:00,
2013-12-22 05:02:00,22.8,20.6,28.58,North,0,9.8,9.8,91,0.00,CLR,,0.00,WeatherDisplay:10.37,2013-12-22 11:02:00,
2013-12-22 05:04:00,22.8,20.6,28.58,NE,45,7.8,7.8,91,0.00,CLR,,0.00,WeatherDisplay:10.37,2013-12-22 11:04:00,
2013-12-22 05:06:00,22.8,20.6,28.58,NNW,338,10.0,10.0,91,0.00,CLR,,0.00,WeatherDisplay:10.37,2013-12-22 11:06:00,
2013-12-22 05:07:00,22.8,20.6,28.58,NNW,338,11.5,11.5,91,0.00,CLR,,0.00,WeatherDisplay:10.37,2013-12-22 11:07:00,
2013-12-22 05:09:00,22.8,20.6,28.58,NW,315,8.1,8.1,91,0.00,CLR,,0.00,WeatherDisplay:10.37,2013-12-22 11:09:00,
2013-12-22 05:12:00,22.8,20.6,28.58,North,0,10.4,10.4,91,0.00,CLR,,0.00,WeatherDisplay:10.37,2013-12-22 11:12:00,
2013-12-22 05:15:00,22.8,20.6,28.58,NNW,338,8.1,8.1,91,0.00,CLR,,0.00,WeatherDisplay:10.37,2013-12-22 11:15:00,
2013-12-22 05:17:00,22.8,20.6,28.58,North,0,6.9,6.9,91,0.00,CLR,,0.00,WeatherDisplay:10.37,2013-12-22 11:17:00,
2013-12-22 05:18:00,22.8,20.6,28.58,North,0,9.2,9.2,91,0.00,CLR,,0.00,WeatherDisplay:10.37,2013-12-22 11:18:00,
2013-12-22 05:20:00,22.8,20.6,28.58,NW,315,9.2,9.2,91,0.00,CLR,,0.00,WeatherDisplay:10.37,2013-12-22 11:20:00,
2013-12-22 05:22:00,22.8,20.6,28.58,North,0,9.2,9.2,91,0.00,CLR,,0.00,WeatherDisplay:10.37,2013-12-22 11:22:00,
2013-12-22 05:23:00,22.8,20.6,28.58,North,0,12.7,12.7,91,0.00,CLR,,0.00,WeatherDisplay:10.37,2013-12-22 11:23:00,
2013-12-22 05:25:00,22.6,20.4,28.61,NNW,338,8.1,8.1,91,0.00,CLR,,0.00,WeatherDisplay:10.37,2013-12-22 11:25:00,
2013-12-22 05:27:00,22.6,20.4,28.61,NNW,338,5.8,5.8,91,0.00,CLR,,0.00,WeatherDisplay:10.37,2013-12-22 11:27:00,
2013-12-22 05:28:00,22.6,20.4,28.61,NW,315,8.1,8.1,91,0.00,CLR,,0.00,WeatherDisplay:10.37,2013-12-22 11:28:00,
2013-12-22 05:30:00,22.6,20.4,28.61,North,0,8.1,8.1,91,0.00,CLR,,0.00,WeatherDisplay:10.37,2013-12-22 11:30:00,
2013-12-22 05:32:00,22.6,20.4,28.61,NW,315,7.4,7.4,91,0.00,CLR,,0.00,WeatherDisplay:10.37,2013-12-22 11:32:00,
2013-12-22 05:33:00,22.6,20.4,28.61,NNW,338,8.1,8.1,91,0.00,CLR,,0.00,WeatherDisplay:10.37,2013-12-22 11:33:00,
2013-12-22 05:34:00,22.6,20.4,28.61,NW,315,9.2,9.2,91,0.00,CLR,,0.00,WeatherDisplay:10.37,2013-12-22 11:34:00,
2013-12-22 05:35:00,22.6,20.4,28.61,NNW,338,4.6,6.2,91,0.00,CLR,,0.00,WeatherDisplay:10.37,2013-12-22 11:35:00,
2013-12-22 05:38:00,22.6,20.4,28.61,NNW,338,8.1,8.1,91,0.00,CLR,,0.00,WeatherDisplay:10.37,2013-12-22 11:38:00,
2013-12-22 05:39:00,22.6,20.4,28.61,NW,315,5.8,5.8,91,0.00,CLR,,0.00,WeatherDisplay:10.37,2013-12-22 11:39:00,
2013-12-22 05:40:00,22.6,20.4,28.61,NNW,340,6.0,8.0,91,0.00,CLR,,0.00,WeatherDisplay:10.37,2013-12-22 11:40:00,
2013-12-22 05:43:00,22.6,20.1,28.61,NW,315,9.2,9.2,90,0.00,CLR,,0.00,WeatherDisplay:10.37,2013-12-22 11:43:00,
2013-12-22 05:45:00,22.6,20.1,28.61,West,270,4.6,4.6,90,0.00,CLR,,0.00,WeatherDisplay:10.37,2013-12-22 11:45:00,
2013-12-22 05:48:00,22.5,20.0,28.61,NW,315,6.9,6.9,90,0.00,CLR,,0.00,WeatherDisplay:10.37,2013-12-22 11:48:00,
2013-12-22 05:49:00,22.5,20.0,28.61,NW,315,6.9,6.9,90,0.00,CLR,,0.00,WeatherDisplay:10.37,2013-12-22 11:49:00,
2013-12-22 05:50:00,22.5,20.0,28.61,NNW,338,8.1,8.1,90,0.00,CLR,,0.00,WeatherDisplay:10.37,2013-12-22 11:50:00,
2013-12-22 05:51:00,22.5,19.7,28.61,North,0,5.8,5.8,89,0.00,CLR,,0.00,WeatherDisplay:10.37,2013-12-22 11:51:00,
2013-12-22 05:54:00,22.5,19.7,28.61,NW,315,4.6,4.6,89,0.00,CLR,,0.00,WeatherDisplay:10.37,2013-12-22 11:54:00,
2013-12-22 05:55:00,22.5,19.7,28.61,NNW,338,4.6,4.6,89,0.00,CLR,,0.00,WeatherDisplay:10.37,2013-12-22 11:55:00,
2013-12-22 05:57:00,22.5,19.7,28.61,NNE,22,5.6,5.6,89,0.00,CLR,,0.00,WeatherDisplay:10.37,2013-12-22 11:57:00,
2013-12-22 05:59:00,22.3,19.5,28.61,North,0,7.4,7.4,89,0.00,CLR,,0.00,WeatherDisplay:10.37,2013-12-22 11:59:00,
2013-12-22 06:00:00,22.3,19.5,28.61,North,0,6.9,6.9,89,0.00,CLR,,0.00,WeatherDisplay:10.37,2013-12-22 12:00:00,
2013-12-22 06:02:00,22.3,19.5,28.61,North,0,6.9,6.9,89,0.00,CLR,,0.00,WeatherDisplay:10.37,2013-12-22 12:02:00,
2013-12-22 06:04:00,22.3,19.5,28.61,NNW,338,9.2,9.2,89,0.00,CLR,,0.00,WeatherDisplay:10.37,2013-12-22 12:04:00,
2013-12-22 06:05:00,22.3,19.5,28.61,NNW,338,5.8,7.1,89,0.00,CLR,,0.00,WeatherDisplay:10.37,2013-12-22 12:05:00,
2013-12-22 06:06:00,22.3,19.5,28.61,North,0,6.9,6.9,89,0.00,CLR,,0.00,WeatherDisplay:10.37,2013-12-22 12:06:00,
2013-12-22 06:08:00,22.3,19.5,28.61,North,0,5.8,5.8,89,0.00,CLR,,0.00,WeatherDisplay:10.37,2013-12-22 12:08:00,
2013-12-22 06:09:00,22.1,19.4,28.61,North,0,5.8,5.8,89,0.00,CLR,,0.00,WeatherDisplay:10.37,2013-12-22 12:09:00,
2013-12-22 06:10:00,22.1,19.4,28.61,North,0,6.9,6.9,89,0.00,CLR,,0.00,WeatherDisplay:10.37,2013-12-22 12:10:00,
2013-12-22 06:11:00,22.1,19.4,28.61,NNW,338,6.9,6.9,89,0.00,CLR,,0.00,WeatherDisplay:10.37,2013-12-22 12:11:00,
2013-12-22 06:13:00,22.1,19.4,28.61,NNW,338,5.8,5.8,89,0.00,CLR,,0.00,WeatherDisplay:10.37,2013-12-22 12:13:00,
2013-12-22 06:15:00,22.1,19.6,28.61,NNW,338,5.8,5.8,90,0.00,CLR,,0.00,WeatherDisplay:10.37,2013-12-22 12:15:00,
2013-12-22 06:17:00,22.1,19.6,28.61,NNW,338,4.6,4.6,90,0.00,CLR,,0.00,WeatherDisplay:10.37,2013-12-22 12:17:00,
2013-12-22 06:19:00,22.1,19.6,28.61,NNW,338,8.1,8.1,90,0.00,CLR,,0.00,WeatherDisplay:10.37,2013-12-22 12:19:00,
2013-12-22 06:20:00,22.1,19.6,28.61,NNW,338,9.7,9.7,90,0.00,CLR,,0.00,WeatherDisplay:10.37,2013-12-22 12:20:00,
2013-12-22 06:22:00,22.1,19.6,28.61,NNW,338,6.2,6.2,90,0.00,CLR,,0.00,WeatherDisplay:10.37,2013-12-22 12:22:00,
2013-12-22 06:24:00,22.1,19.6,28.61,NNW,338,5.8,5.8,90,0.00,CLR,,0.00,WeatherDisplay:10.37,2013-12-22 12:24:00,
2013-12-22 06:25:00,21.9,19.4,28.64,NNW,338,5.8,5.8,90,0.00,CLR,,0.00,WeatherDisplay:10.37,2013-12-22 12:25:00,
2013-12-22 06:26:00,21.9,19.4,28.64,NNE,22,5.8,5.8,90,0.00,CLR,,0.00,WeatherDisplay:10.37,2013-12-22 12:26:00,
2013-12-22 06:27:00,21.9,19.4,28.64,NW,315,4.6,4.6,90,0.00,CLR,,0.00,WeatherDisplay:10.37,2013-12-22 12:27:00,
2013-12-22 06:29:00,21.9,19.4,28.64,North,0,5.8,5.8,90,0.00,CLR,,0.00,WeatherDisplay:10.37,2013-12-22 12:29:00,
2013-12-22 06:30:00,21.9,19.4,28.64,NNE,22,5.8,5.8,90,0.00,CLR,,0.00,WeatherDisplay:10.37,2013-12-22 12:30:00,
2013-12-22 06:31:00,21.9,19.4,28.64,North,0,5.8,5.8,90,0.00,CLR,,0.00,WeatherDisplay:10.37,2013-12-22 12:31:00,
2013-12-22 06:32:00,21.9,19.4,28.64,NNW,338,6.9,6.9,90,0.00,CLR,,0.00,WeatherDisplay:10.37,2013-12-22 12:32:00,
2013-12-22 06:35:00,21.9,19.4,28.64,NW,315,5.8,5.8,90,0.00,CLR,,0.00,WeatherDisplay:10.37,2013-12-22 12:35:00,
2013-12-22 06:36:00,21.9,19.4,28.64,NNW,338,6.9,6.9,90,0.00,CLR,,0.00,WeatherDisplay:10.37,2013-12-22 12:36:00,
2013-12-22 06:37:00,21.9,19.4,28.64,NNW,338,5.8,5.8,90,0.00,CLR,,0.00,WeatherDisplay:10.37,2013-12-22 12:37:00,
2013-12-22 06:40:00,21.9,19.4,28.61,North,0,4.6,4.7,90,0.00,CLR,,0.00,WeatherDisplay:10.37,2013-12-22 12:40:00,
2013-12-22 06:41:00,21.9,19.4,28.61,WNW,292,6.9,6.9,90,0.00,CLR,,0.00,WeatherDisplay:10.37,2013-12-22 12:41:00,
2013-12-22 06:42:00,21.9,19.4,28.61,North,0,6.9,6.9,90,0.00,CLR,,0.00,WeatherDisplay:10.37,2013-12-22 12:42:00,
2013-12-22 06:46:00,21.9,19.4,28.61,NNW,338,6.9,6.9,90,0.00,CLR,,0.00,WeatherDisplay:10.37,2013-12-22 12:46:00,
2013-12-22 06:47:00,21.9,19.4,28.61,NW,315,6.9,6.9,90,0.00,CLR,,0.00,WeatherDisplay:10.37,2013-12-22 12:47:00,
2013-12-22 06:48:00,21.9,19.4,28.61,NNW,338,5.8,5.8,90,0.00,CLR,,0.00,WeatherDisplay:10.37,2013-12-22 12:48:00,
2013-12-22 06:51:00,21.9,19.4,28.61,NNW,338,8.1,8.1,90,0.00,CLR,,0.00,WeatherDisplay:10.37,2013-12-22 12:51:00,
2013-12-22 06:52:00,21.9,19.4,28.61,NNW,338,8.1,8.1,90,0.00,CLR,,0.00,WeatherDisplay:10.37,2013-12-22 12:52:00,
2013-12-22 06:53:00,21.9,19.4,28.61,WNW,292,6.9,6.9,90,0.00,CLR,,0.00,WeatherDisplay:10.37,2013-12-22 12:53:00,
2013-12-22 06:56:00,21.9,19.4,28.61,North,0,8.1,8.1,90,0.00,CLR,,0.00,WeatherDisplay:10.37,2013-12-22 12:56:00,
2013-12-22 06:57:00,21.9,19.4,28.61,NNW,338,8.1,8.1,90,0.00,CLR,,0.00,WeatherDisplay:10.37,2013-12-22 12:57:00,
2013-12-22 06:58:00,21.9,19.4,28.61,NNW,338,5.8,5.8,90,0.00,CLR,,0.00,WeatherDisplay:10.37,2013-12-22 12:58:00,
2013-12-22 07:01:00,21.9,19.4,28.61,NNE,22,6.9,6.9,90,0.00,CLR,,0.00,WeatherDisplay:10.37,2013-12-22 13:01:00,
2013-12-22 07:02:00,21.9,19.4,28.61,NNW,338,4.6,4.6,90,0.00,CLR,,0.00,WeatherDisplay:10.37,2013-12-22 13:02:00,
2013-12-22 07:03:00,21.9,19.4,28.61,North,0,5.8,5.8,90,0.00,CLR,,0.00,WeatherDisplay:10.37,2013-12-22 13:03:00,
2013-12-22 07:04:00,21.9,19.4,28.61,NW,315,9.2,9.2,90,0.00,CLR,,0.00,WeatherDisplay:10.37,2013-12-22 13:04:00,
2013-12-22 07:06:00,21.9,19.4,28.61,North,0,10.4,10.4,90,0.00,CLR,,0.00,WeatherDisplay:10.37,2013-12-22 13:06:00,
2013-12-22 07:07:00,21.9,19.4,28.61,North,0,12.7,12.7,90,0.00,CLR,,0.00,WeatherDisplay:10.37,2013-12-22 13:07:00,
2013-12-22 07:08:00,21.9,19.7,28.61,NW,315,5.8,5.8,91,0.00,CLR,,0.00,WeatherDisplay:10.37,2013-12-22 13:08:00,
2013-12-22 07:09:00,21.9,19.7,28.61,NW,315,5.8,5.8,91,0.00,CLR,,0.00,WeatherDisplay:10.37,2013-12-22 13:09:00,
2013-12-22 07:12:00,21.9,19.7,28.64,NW,315,10.4,10.4,91,0.00,CLR,,0.00,WeatherDisplay:10.37,2013-12-22 13:12:00,
2013-12-22 07:13:00,21.9,19.7,28.64,NNW,338,6.9,6.9,91,0.00,CLR,,0.00,WeatherDisplay:10.37,2013-12-22 13:13:00,
2013-12-22 07:14:00,21.9,19.7,28.64,NW,315,5.9,5.9,91,0.00,CLR,,0.00,WeatherDisplay:10.37,2013-12-22 13:14:00,
2013-12-22 07:15:00,21.9,19.7,28.64,North,0,5.8,6.0,91,0.00,CLR,,0.00,WeatherDisplay:10.37,2013-12-22 13:15:00,
2013-12-22 07:17:00,21.9,19.7,28.64,NNW,338,10.5,10.5,91,0.00,CLR,,0.00,WeatherDisplay:10.37,2013-12-22 13:17:00,
2013-12-22 07:18:00,21.9,19.7,28.64,NE,45,10.4,10.4,91,0.00,CLR,,0.00,WeatherDisplay:10.37,2013-12-22 13:18:00,
2013-12-22 07:19:00,21.9,19.7,28.64,NW,315,9.2,9.2,91,0.00,CLR,,0.00,WeatherDisplay:10.37,2013-12-22 13:19:00,
2013-12-22 07:20:00,21.9,19.7,28.64,NW,315,8.1,8.1,91,0.00,CLR,,0.00,WeatherDisplay:10.37,2013-12-22 13:20:00,
2013-12-22 07:22:00,21.9,19.7,28.64,NNW,338,8.1,8.1,91,0.00,CLR,,0.00,WeatherDisplay:10.37,2013-12-22 13:22:00,
2013-12-22 07:23:00,21.9,19.7,28.64,North,0,5.8,5.8,91,0.00,CLR,,0.00,WeatherDisplay:10.37,2013-12-22 13:23:00,
2013-12-22 07:24:00,21.9,19.7,28.64,North,0,6.0,6.0,91,0.00,CLR,,0.00,WeatherDisplay:10.37,2013-12-22 13:24:00,
2013-12-22 07:26:00,21.9,19.7,28.64,NW,315,5.8,5.8,91,0.00,CLR,,0.00,WeatherDisplay:10.37,2013-12-22 13:26:00,
2013-12-22 07:27:00,21.9,19.7,28.64,NNW,338,5.8,5.8,91,0.00,CLR,,0.00,WeatherDisplay:10.37,2013-12-22 13:27:00,
2013-12-22 07:29:00,21.9,19.7,28.64,NNW,338,4.6,4.6,91,0.00,CLR,,0.00,WeatherDisplay:10.37,2013-12-22 13:29:00,
2013-12-22 07:31:00,21.9,19.7,28.64,NNW,338,8.1,8.1,91,0.00,CLR,,0.00,WeatherDisplay:10.37,2013-12-22 13:31:00,
2013-12-22 07:32:00,21.9,19.7,28.64,NNW,338,8.1,8.1,91,0.00,CLR,,0.00,WeatherDisplay:10.37,2013-12-22 13:32:00,
2013-12-22 07:34:00,21.9,19.7,28.64,NNW,338,5.8,5.8,91,0.00,CLR,,0.00,WeatherDisplay:10.37,2013-12-22 13:34:00,
2013-12-22 07:35:00,21.9,19.7,28.64,NNW,331,5.0,8.0,91,0.00,CLR,,0.00,WeatherDisplay:10.37,2013-12-22 13:35:00,
2013-12-22 07:36:00,21.9,19.7,28.64,NW,315,8.1,8.1,91,0.00,CLR,,0.00,WeatherDisplay:10.37,2013-12-22 13:36:00,
2013-12-22 07:37:00,21.9,19.7,28.64,NNW,338,6.9,6.9,91,0.00,CLR,,0.00,WeatherDisplay:10.37,2013-12-22 13:37:00,
2013-12-22 07:38:00,21.9,19.7,28.64,NW,315,6.9,6.9,91,0.00,CLR,,0.00,WeatherDisplay:10.37,2013-12-22 13:38:00,
2013-12-22 07:39:00,21.9,19.7,28.64,NW,315,5.8,5.8,91,0.00,CLR,,0.00,WeatherDisplay:10.37,2013-12-22 13:39:00,
2013-12-22 07:40:00,21.9,19.7,28.64,NNW,338,5.9,5.9,91,0.00,CLR,,0.00,WeatherDisplay:10.37,2013-12-22 13:40:00,
2013-12-22 07:41:00,21.9,19.7,28.64,NNW,338,7.4,7.4,91,0.00,CLR,,0.00,WeatherDisplay:10.37,2013-12-22 13:41:00,
2013-12-22 07:42:00,21.9,19.7,28.64,WNW,292,6.9,6.9,91,0.00,CLR,,0.00,WeatherDisplay:10.37,2013-12-22 13:42:00,
2013-12-22 07:43:00,21.9,19.7,28.64,NNW,338,6.9,6.9,91,0.00,CLR,,0.00,WeatherDisplay:10.37,2013-12-22 13:43:00,
2013-12-22 07:44:00,21.9,19.7,28.64,NW,315,8.1,8.1,91,0.00,CLR,,0.00,WeatherDisplay:10.37,2013-12-22 13:44:00,
2013-12-22 07:45:00,21.9,19.7,28.64,North,0,8.1,8.1,91,0.00,CLR,,0.00,WeatherDisplay:10.37,2013-12-22 13:45:00,
2013-12-22 07:46:00,21.9,19.7,28.64,NNW,338,5.8,5.8,91,0.00,CLR,,0.00,WeatherDisplay:10.37,2013-12-22 13:46:00,
2013-12-22 07:47:00,21.9,19.7,28.64,NNW,338,5.9,5.9,91,0.00,CLR,,0.00,WeatherDisplay:10.37,2013-12-22 13:47:00,
2013-12-22 07:48:00,21.9,19.7,28.64,NW,315,5.8,5.8,91,0.00,CLR,,0.00,WeatherDisplay:10.37,2013-12-22 13:48:00,
2013-12-22 07:49:00,21.9,19.7,28.64,North,0,7.4,7.4,91,0.00,CLR,,0.00,WeatherDisplay:10.37,2013-12-22 13:49:00,
2013-12-22 07:50:00,21.9,19.7,28.64,NNW,338,6.9,6.9,91,0.00,CLR,,0.00,WeatherDisplay:10.37,2013-12-22 13:50:00,
2013-12-22 07:52:00,21.9,19.7,28.64,NNW,338,6.9,6.9,91,0.00,CLR,,0.00,WeatherDisplay:10.37,2013-12-22 13:52:00,
2013-12-22 07:53:00,21.9,19.7,28.64,NNW,338,6.9,6.9,91,0.00,CLR,,0.00,WeatherDisplay:10.37,2013-12-22 13:53:00,
2013-12-22 07:54:00,21.9,19.4,28.64,NW,315,4.6,4.6,90,0.00,CLR,,0.00,WeatherDisplay:10.37,2013-12-22 13:54:00,
2013-12-22 07:55:00,21.9,19.4,28.64,North,0,5.8,5.8,90,0.00,CLR,,0.00,WeatherDisplay:10.37,2013-12-22 13:55:00,
2013-12-22 07:57:00,21.9,19.4,28.64,NW,315,4.6,4.6,90,0.00,CLR,,0.00,WeatherDisplay:10.37,2013-12-22 13:57:00,
2013-12-22 07:58:00,22.1,19.6,28.64,NNW,338,9.2,9.2,90,0.00,CLR,,0.00,WeatherDisplay:10.37,2013-12-22 13:58:00,
2013-12-22 07:59:00,22.1,19.6,28.64,NW,315,5.8,5.8,90,0.00,CLR,,0.00,WeatherDisplay:10.37,2013-12-22 13:59:00,
2013-12-22 08:00:00,22.1,19.6,28.64,NW,315,5.8,5.8,90,0.00,CLR,,0.00,WeatherDisplay:10.37,2013-12-22 14:00:00,
2013-12-22 08:01:00,22.1,19.6,28.64,NNW,338,4.7,4.7,90,0.00,CLR,,0.00,WeatherDisplay:10.37,2013-12-22 14:01:00,
2013-12-22 08:03:00,22.1,19.6,28.64,NNW,338,9.2,9.2,90,0.00,CLR,,0.00,WeatherDisplay:10.37,2013-12-22 14:03:00,
2013-12-22 08:04:00,22.1,19.6,28.64,NW,315,5.4,5.4,90,0.00,CLR,,0.00,WeatherDisplay:10.37,2013-12-22 14:04:00,
2013-12-22 08:05:00,22.1,19.6,28.64,NNW,338,7.1,7.1,90,0.00,CLR,,0.00,WeatherDisplay:10.37,2013-12-22 14:05:00,
2013-12-22 08:06:00,22.1,19.6,28.64,NNW,338,8.1,8.1,90,0.00,CLR,,0.00,WeatherDisplay:10.37,2013-12-22 14:06:00,
2013-12-22 08:08:00,22.1,19.4,28.64,NW,315,4.6,4.6,89,0.00,CLR,,0.00,WeatherDisplay:10.37,2013-12-22 14:08:00,
2013-12-22 08:09:00,22.1,19.4,28.64,NNW,338,3.5,3.5,89,0.00,CLR,,0.00,WeatherDisplay:10.37,2013-12-22 14:09:00,
2013-12-22 08:10:00,22.1,19.4,28.64,North,0,8.5,8.5,89,0.00,CLR,,0.00,WeatherDisplay:10.37,2013-12-22 14:10:00,
2013-12-22 08:11:00,22.1,19.4,28.64,NNW,338,8.1,8.1,89,0.00,CLR,,0.00,WeatherDisplay:10.37,2013-12-22 14:11:00,
2013-12-22 08:13:00,22.1,19.4,28.64,NNW,338,8.1,8.1,89,0.00,CLR,,0.00,WeatherDisplay:10.37,2013-12-22 14:13:00,
2013-12-22 08:14:00,22.1,19.4,28.64,North,0,8.1,8.1,89,0.00,CLR,,0.00,WeatherDisplay:10.37,2013-12-22 14:14:00,
2013-12-22 08:16:00,22.1,19.4,28.64,NNW,338,5.8,5.8,89,0.00,CLR,,0.00,WeatherDisplay:10.37,2013-12-22 14:16:00,
2013-12-22 08:18:00,22.1,19.4,28.64,NW,315,6.2,6.2,89,0.00,CLR,,0.00,WeatherDisplay:10.37,2013-12-22 14:18:00,
2013-12-22 08:19:00,22.1,19.4,28.64,North,0,5.9,5.9,89,0.00,CLR,,0.00,WeatherDisplay:10.37,2013-12-22 14:19:00,
2013-12-22 08:20:00,22.1,19.4,28.64,North,0,5.8,6.2,89,0.00,CLR,,0.00,WeatherDisplay:10.37,2013-12-22 14:20:00,
2013-12-22 08:21:00,22.1,19.4,28.64,NNW,338,6.4,6.4,89,0.00,CLR,,0.00,WeatherDisplay:10.37,2013-12-22 14:21:00,
2013-12-22 08:22:00,22.3,19.5,28.64,NNW,338,6.9,6.9,89,0.00,CLR,,0.00,WeatherDisplay:10.37,2013-12-22 14:22:00,
2013-12-22 08:23:00,22.3,19.5,28.64,NW,315,5.8,5.8,89,0.00,CLR,,0.00,WeatherDisplay:10.37,2013-12-22 14:23:00,
2013-12-22 08:24:00,22.3,19.5,28.64,NW,315,4.6,4.6,89,0.00,CLR,,0.00,WeatherDisplay:10.37,2013-12-22 14:24:00,
2013-12-22 08:25:00,22.3,19.5,28.64,NNW,338,5.4,5.4,89,0.00,CLR,,0.00,WeatherDisplay:10.37,2013-12-22 14:25:00,
2013-12-22 08:27:00,22.3,19.8,28.64,NNW,338,5.8,5.8,90,0.00,CLR,,0.00,WeatherDisplay:10.37,2013-12-22 14:27:00,
2013-12-22 08:29:00,22.5,20.0,28.64,NNW,338,4.6,4.6,90,0.00,CLR,,0.00,WeatherDisplay:10.37,2013-12-22 14:29:00,
2013-12-22 08:30:00,22.5,20.0,28.64,NW,315,4.9,4.9,90,0.00,CLR,,0.00,WeatherDisplay:10.37,2013-12-22 14:30:00,
2013-12-22 08:33:00,22.5,20.0,28.64,NW,315,6.0,6.0,90,0.00,CLR,,0.00,WeatherDisplay:10.37,2013-12-22 14:33:00,
2013-12-22 08:34:00,22.5,20.0,28.64,NW,315,5.8,5.8,90,0.00,CLR,,0.00,WeatherDisplay:10.37,2013-12-22 14:34:00,
2013-12-22 08:35:00,22.5,20.0,28.64,NNW,338,6.9,6.9,90,0.00,CLR,,0.00,WeatherDisplay:10.37,2013-12-22 14:35:00,
2013-12-22 08:38:00,22.5,20.0,28.64,North,0,6.9,6.9,90,0.00,CLR,,0.00,WeatherDisplay:10.37,2013-12-22 14:38:00,
2013-12-22 08:39:00,22.5,19.7,28.64,NNW,338,6.9,6.9,89,0.00,CLR,,0.00,WeatherDisplay:10.37,2013-12-22 14:39:00,
2013-12-22 08:40:00,22.5,19.7,28.64,NNW,338,8.1,8.1,89,0.00,CLR,,0.00,WeatherDisplay:10.37,2013-12-22 14:40:00,
2013-12-22 08:41:00,22.5,19.7,28.64,NNW,338,8.1,8.1,89,0.00,CLR,,0.00,WeatherDisplay:10.37,2013-12-22 14:41:00,
2013-12-22 08:43:00,22.5,19.7,28.64,NNW,338,6.9,6.9,89,0.00,CLR,,0.00,WeatherDisplay:10.37,2013-12-22 14:43:00,
2013-12-22 08:44:00,22.5,19.7,28.64,NNW,338,5.8,5.8,89,0.00,CLR,,0.00,WeatherDisplay:10.37,2013-12-22 14:44:00,
2013-12-22 08:45:00,22.6,19.9,28.64,NNW,338,6.0,6.0,89,0.00,CLR,,0.00,WeatherDisplay:10.37,2013-12-22 14:45:00,
2013-12-22 08:46:00,22.6,19.9,28.64,NW,315,8.1,8.1,89,0.00,CLR,,0.00,WeatherDisplay:10.37,2013-12-22 14:46:00,
2013-12-22 08:48:00,22.6,19.9,28.64,NNE,22,6.9,6.9,89,0.00,CLR,,0.00,WeatherDisplay:10.37,2013-12-22 14:48:00,
2013-12-22 08:49:00,22.6,19.9,28.64,NNW,338,5.8,5.8,89,0.00,CLR,,0.00,WeatherDisplay:10.37,2013-12-22 14:49:00,
2013-12-22 08:50:00,22.6,19.9,28.64,NNW,338,4.6,4.6,89,0.00,CLR,,0.00,WeatherDisplay:10.37,2013-12-22 14:50:00,
2013-12-22 08:51:00,22.8,20.1,28.64,NW,315,4.6,4.6,89,0.00,CLR,,0.00,WeatherDisplay:10.37,2013-12-22 14:51:00,
2013-12-22 08:54:00,22.8,20.1,28.64,North,0,5.8,5.8,89,0.00,CLR,,0.00,WeatherDisplay:10.37,2013-12-22 14:54:00,
2013-12-22 08:55:00,22.8,20.1,28.67,NNW,338,5.8,5.8,89,0.00,CLR,,0.00,WeatherDisplay:10.37,2013-12-22 14:55:00,
2013-12-22 08:56:00,22.8,20.1,28.67,NNW,338,6.4,6.4,89,0.00,CLR,,0.00,WeatherDisplay:10.37,2013-12-22 14:56:00,
2013-12-22 08:57:00,22.8,20.1,28.67,NNW,338,6.9,6.9,89,0.00,CLR,,0.00,WeatherDisplay:10.37,2013-12-22 14:57:00,
2013-12-22 08:59:00,22.8,20.1,28.67,NNW,338,5.8,5.8,89,0.00,CLR,,0.00,WeatherDisplay:10.37,2013-12-22 14:59:00,
2013-12-22 09:00:00,22.8,20.1,28.67,NNW,338,5.8,5.8,89,0.00,CLR,,0.00,WeatherDisplay:10.37,2013-12-22 15:00:00,
2013-12-22 09:01:00,22.8,19.8,28.67,NW,315,4.6,4.6,88,0.00,CLR,,0.00,WeatherDisplay:10.37,2013-12-22 15:01:00,
2013-12-22 09:02:00,22.8,20.1,28.67,NW,315,4.6,4.6,89,0.00,CLR,,0.00,WeatherDisplay:10.37,2013-12-22 15:02:00,
2013-12-22 09:04:00,22.8,20.1,28.67,NW,315,3.5,3.8,89,0.00,CLR,,0.00,WeatherDisplay:10.37,2013-12-22 15:04:00,
2013-12-22 09:05:00,22.8,20.1,28.67,NW,315,4.6,4.6,89,0.00,CLR,,0.00,WeatherDisplay:10.37,2013-12-22 15:05:00,
2013-12-22 09:06:00,23.0,20.2,28.67,NW,315,4.6,4.6,89,0.00,CLR,,0.00,WeatherDisplay:10.37,2013-12-22 15:06:00,
2013-12-22 09:08:00,23.0,20.2,28.67,WNW,292,4.6,4.6,89,0.00,CLR,,0.00,WeatherDisplay:10.37,2013-12-22 15:08:00,
2013-12-22 09:09:00,23.0,20.0,28.67,NNW,338,3.5,3.5,88,0.00,CLR,,0.00,WeatherDisplay:10.37,2013-12-22 15:09:00,
2013-12-22 09:10:00,23.0,20.0,28.67,NW,315,4.6,4.6,88,0.00,CLR,,0.00,WeatherDisplay:10.37,2013-12-22 15:10:00,
2013-12-22 09:11:00,23.2,20.2,28.67,NW,315,3.5,3.5,88,0.00,CLR,,0.00,WeatherDisplay:10.37,2013-12-22 15:11:00,
2013-12-22 09:14:00,23.4,20.3,28.67,NE,45,4.6,4.6,88,0.00,CLR,,0.00,WeatherDisplay:10.37,2013-12-22 15:14:00,
2013-12-22 09:15:00,23.4,20.3,28.67,NW,315,4.6,4.6,88,0.00,CLR,,0.00,WeatherDisplay:10.37,2013-12-22 15:15:00,
2013-12-22 09:16:00,23.4,20.3,28.67,North,0,4.6,4.6,88,0.00,CLR,,0.00,WeatherDisplay:10.37,2013-12-22 15:16:00,
2013-12-22 09:19:00,23.7,20.7,28.67,NNW,338,3.5,3.5,88,0.00,CLR,,0.00,WeatherDisplay:10.37,2013-12-22 15:19:00,
2013-12-22 09:21:00,23.5,20.5,28.67,NW,315,5.6,5.6,88,0.00,CLR,,0.00,WeatherDisplay:10.37,2013-12-22 15:21:00,
2013-12-22 09:22:00,23.5,20.2,28.67,WNW,292,5.8,5.8,87,0.00,CLR,,0.00,WeatherDisplay:10.37,2013-12-22 15:22:00,
2013-12-22 09:24:00,23.7,20.4,28.67,NW,315,4.9,4.9,87,0.00,CLR,,0.00,WeatherDisplay:10.37,2013-12-22 15:24:00,
2013-12-22 09:25:00,23.7,20.4,28.67,NW,315,4.6,4.6,87,0.00,CLR,,0.00,WeatherDisplay:10.37,2013-12-22 15:25:00,
2013-12-22 09:26:00,23.5,20.2,28.67,North,0,5.9,5.9,87,0.00,CLR,,0.00,WeatherDisplay:10.37,2013-12-22 15:26:00,
2013-12-22 09:27:00,23.7,20.1,28.67,NW,315,6.9,6.9,86,0.00,CLR,,0.00,WeatherDisplay:10.37,2013-12-22 15:27:00,
2013-12-22 09:28:00,23.5,20.0,28.67,NNE,22,6.9,6.9,86,0.00,CLR,,0.00,WeatherDisplay:10.37,2013-12-22 15:28:00,
2013-12-22 09:30:00,23.7,20.1,28.67,NNW,338,3.5,3.5,86,0.00,CLR,,0.00,WeatherDisplay:10.37,2013-12-22 15:30:00,
2013-12-22 09:31:00,23.9,20.3,28.67,NW,315,5.8,5.8,86,0.00,CLR,,0.00,WeatherDisplay:10.37,2013-12-22 15:31:00,
2013-12-22 09:32:00,23.9,20.3,28.67,NNW,338,4.6,4.6,86,0.00,CLR,,0.00,WeatherDisplay:10.37,2013-12-22 15:32:00,
2013-12-22 09:33:00,23.9,20.0,28.67,NW,315,5.8,5.8,85,0.00,CLR,,0.00,WeatherDisplay:10.37,2013-12-22 15:33:00,
2013-12-22 09:35:00,24.1,20.2,28.67,NNW,338,4.6,4.6,85,0.00,CLR,,0.00,WeatherDisplay:10.37,2013-12-22 15:35:00,
2013-12-22 09:36:00,24.1,20.2,28.67,NW,315,6.9,6.9,85,0.00,CLR,,0.00,WeatherDisplay:10.37,2013-12-22 15:36:00,
2013-12-22 09:37:00,24.3,20.1,28.67,NNE,22,6.9,6.9,84,0.00,CLR,,0.00,WeatherDisplay:10.37,2013-12-22 15:37:00,
2013-12-22 09:40:00,24.8,21.0,28.67,NNW,334,2.0,7.0,85,0.00,CLR,,0.00,WeatherDisplay:10.37,2013-12-22 15:40:00,
2013-12-22 09:41:00,25.0,20.8,28.67,NNW,338,3.8,3.8,84,0.00,CLR,,0.00,WeatherDisplay:10.37,2013-12-22 15:41:00,
2013-12-22 09:43:00,25.5,21.4,28.67,North,0,3.6,3.6,84,0.00,CLR,,0.00,WeatherDisplay:10.37,2013-12-22 15:43:00,
2013-12-22 09:45:00,26.1,21.9,28.67,NW,315,2.4,2.4,84,0.00,CLR,,0.00,WeatherDisplay:10.37,2013-12-22 15:45:00,
2013-12-22 09:46:00,25.9,21.7,28.67,NW,315,4.6,4.6,84,0.00,CLR,,0.00,WeatherDisplay:10.37,2013-12-22 15:46:00,
2013-12-22 09:48:00,26.2,22.1,28.67,NNW,338,4.6,4.6,84,0.00,CLR,,0.00,WeatherDisplay:10.37,2013-12-22 15:48:00,
2013-12-22 09:51:00,26.2,21.5,28.67,NNW,338,4.7,4.7,82,0.00,CLR,,0.00,WeatherDisplay:10.37,2013-12-22 15:51:00,
2013-12-22 09:53:00,26.1,20.7,28.67,North,0,6.9,6.9,80,0.00,CLR,,0.00,WeatherDisplay:10.37,2013-12-22 15:53:00,
2013-12-22 09:56:00,26.4,20.5,28.67,North,0,5.8,5.8,78,0.00,CLR,,0.00,WeatherDisplay:10.37,2013-12-22 15:56:00,
2013-12-22 09:57:00,26.8,20.5,28.67,NNW,338,5.8,5.8,77,0.00,CLR,,0.00,WeatherDisplay:10.37,2013-12-22 15:57:00,
2013-12-22 09:58:00,27.3,21.4,28.67,NNW,338,3.5,3.5,78,0.00,CLR,,0.00,WeatherDisplay:10.37,2013-12-22 15:58:00,
2013-12-22 09:59:00,27.3,21.4,28.67,NNW,338,3.6,3.6,78,0.00,CLR,,0.00,WeatherDisplay:10.37,2013-12-22 15:59:00,
2013-12-22 10:01:00,27.3,21.1,28.67,NNW,338,4.9,4.9,77,0.00,CLR,,0.00,WeatherDisplay:10.37,2013-12-22 16:01:00,
2013-12-22 10:02:00,27.5,21.2,28.67,NW,315,4.6,4.6,77,0.00,CLR,,0.00,WeatherDisplay:10.37,2013-12-22 16:02:00,
2013-12-22 10:04:00,27.7,21.1,28.67,NW,315,4.6,4.6,76,0.00,CLR,,0.00,WeatherDisplay:10.37,2013-12-22 16:04:00,
2013-12-22 10:06:00,27.5,20.3,28.67,NW,315,5.8,5.8,74,0.00,CLR,,0.00,WeatherDisplay:10.37,2013-12-22 16:06:00,
2013-12-22 10:07:00,27.5,20.3,28.67,NNW,338,4.6,4.6,74,0.00,CLR,,0.00,WeatherDisplay:10.37,2013-12-22 16:07:00,
2013-12-22 10:09:00,27.5,20.3,28.70,NW,315,5.8,5.8,74,0.00,CLR,,0.00,WeatherDisplay:10.37,2013-12-22 16:09:00,
2013-12-22 10:11:00,27.3,19.5,28.70,NNW,338,5.8,5.8,72,0.00,CLR,,0.00,WeatherDisplay:10.37,2013-12-22 16:11:00,
2013-12-22 10:12:00,27.3,19.5,28.70,NNW,338,5.8,5.8,72,0.00,CLR,,0.00,WeatherDisplay:10.37,2013-12-22 16:12:00,
2013-12-22 10:14:00,27.0,18.5,28.70,NW,315,8.1,8.1,70,0.00,CLR,,0.00,WeatherDisplay:10.37,2013-12-22 16:14:00,
2013-12-22 10:15:00,27.0,18.5,28.70,NNW,338,8.1,8.1,70,0.00,CLR,,0.00,WeatherDisplay:10.37,2013-12-22 16:15:00,
2013-12-22 10:17:00,27.1,18.6,28.70,NNW,338,6.2,6.2,70,0.00,CLR,,0.00,WeatherDisplay:10.37,2013-12-22 16:17:00,
2013-12-22 10:19:00,27.7,19.5,28.70,North,0,4.6,4.6,71,0.00,CLR,,0.00,WeatherDisplay:10.37,2013-12-22 16:19:00,
2013-12-22 10:20:00,27.7,19.5,28.70,NNW,338,4.6,4.6,71,0.00,CLR,,0.00,WeatherDisplay:10.37,2013-12-22 16:20:00,
2013-12-22 10:22:00,28.4,20.5,28.70,NNW,338,3.5,3.5,72,0.00,CLR,,0.00,WeatherDisplay:10.37,2013-12-22 16:22:00,
2013-12-22 10:23:00,28.4,20.5,28.70,NNW,338,3.5,3.5,72,0.00,CLR,,0.00,WeatherDisplay:10.37,2013-12-22 16:23:00,
2013-12-22 10:24:00,28.8,20.9,28.67,NNW,338,3.8,3.8,72,0.00,CLR,,0.00,WeatherDisplay:10.37,2013-12-22 16:24:00,
2013-12-22 10:25:00,28.8,20.9,28.67,NNW,338,5.4,5.4,72,0.00,CLR,,0.00,WeatherDisplay:10.37,2013-12-22 16:25:00,
2013-12-22 10:27:00,28.2,20.0,28.67,NNW,338,5.8,5.8,71,0.00,CLR,,0.00,WeatherDisplay:10.37,2013-12-22 16:27:00,
2013-12-22 10:28:00,27.9,19.7,28.67,NNE,22,5.8,5.8,71,0.00,CLR,,0.00,WeatherDisplay:10.37,2013-12-22 16:28:00,
2013-12-22 10:30:00,27.9,19.0,28.67,North,0,5.8,5.8,69,0.00,CLR,,0.00,WeatherDisplay:10.37,2013-12-22 16:30:00,
2013-12-22 10:31:00,28.4,19.5,28.67,North,0,5.8,5.8,69,0.00,CLR,,0.00,WeatherDisplay:10.37,2013-12-22 16:31:00,
2013-12-22 10:32:00,28.0,19.2,28.67,North,0,6.0,6.0,69,0.00,CLR,,0.00,WeatherDisplay:10.37,2013-12-22 16:32:00,
2013-12-22 10:33:00,28.4,19.2,28.67,NNE,22,6.9,6.9,68,0.00,CLR,,0.00,WeatherDisplay:10.37,2013-12-22 16:33:00,
2013-12-22 10:35:00,28.6,19.4,28.67,NW,315,6.4,6.4,68,0.00,CLR,,0.00,WeatherDisplay:10.37,2013-12-22 16:35:00,
2013-12-22 10:37:00,28.9,19.7,28.67,NE,45,5.8,5.8,68,0.00,CLR,,0.00,WeatherDisplay:10.37,2013-12-22 16:37:00,
2013-12-22 10:38:00,28.6,19.0,28.67,NNE,22,4.6,4.6,67,0.00,CLR,,0.00,WeatherDisplay:10.37,2013-12-22 16:38:00,
2013-12-22 10:40:00,28.6,18.7,28.67,North,0,5.9,5.9,66,0.00,CLR,,0.00,WeatherDisplay:10.37,2013-12-22 16:40:00,
2013-12-22 10:43:00,28.6,18.7,28.67,North,0,5.8,5.8,66,0.00,CLR,,0.00,WeatherDisplay:10.37,2013-12-22 16:43:00,
2013-12-22 10:44:00,28.6,18.3,28.67,NNE,22,6.9,6.9,65,0.00,CLR,,0.00,WeatherDisplay:10.37,2013-12-22 16:44:00,
2013-12-22 10:45:00,28.9,18.6,28.67,NE,45,6.2,6.2,65,0.00,CLR,,0.00,WeatherDisplay:10.37,2013-12-22 16:45:00,
2013-12-22 10:48:00,28.9,18.3,28.67,NNW,338,6.2,6.2,64,0.00,CLR,,0.00,WeatherDisplay:10.37,2013-12-22 16:48:00,
2013-12-22 10:49:00,29.1,18.8,28.67,West,270,8.1,8.1,65,0.00,CLR,,0.00,WeatherDisplay:10.37,2013-12-22 16:49:00,
2013-12-22 10:50:00,28.9,18.6,28.67,NNW,338,6.0,6.0,65,0.00,CLR,,0.00,WeatherDisplay:10.37,2013-12-22 16:50:00,
2013-12-22 10:53:00,27.9,17.3,28.67,NW,315,9.2,9.2,64,0.00,CLR,,0.00,WeatherDisplay:10.37,2013-12-22 16:53:00,
2013-12-22 10:54:00,27.7,17.1,28.67,NW,315,9.2,9.2,64,0.00,CLR,,0.00,WeatherDisplay:10.37,2013-12-22 16:54:00,
2013-12-22 10:55:00,27.7,17.4,28.67,NNW,338,8.1,8.1,65,0.00,CLR,,0.00,WeatherDisplay:10.37,2013-12-22 16:55:00,
2013-12-22 10:58:00,27.1,16.9,28.67,North,0,8.1,8.1,65,0.00,CLR,,0.00,WeatherDisplay:10.37,2013-12-22 16:58:00,
2013-12-22 10:59:00,27.5,17.6,28.67,NNE,22,9.2,9.2,66,0.00,CLR,,0.00,WeatherDisplay:10.37,2013-12-22 16:59:00,
2013-12-22 11:00:00,27.3,17.5,28.67,NNW,338,7.8,7.8,66,0.00,CLR,,0.00,WeatherDisplay:10.37,2013-12-22 17:00:00,
2013-12-22 11:01:00,27.7,17.8,28.67,NNW,338,8.1,8.1,66,0.00,CLR,,0.00,WeatherDisplay:10.37,2013-12-22 17:01:00,
2013-12-22 11:03:00,27.5,18.0,28.67,NW,315,6.0,6.0,67,0.00,CLR,,0.00,WeatherDisplay:10.37,2013-12-22 17:03:00,
2013-12-22 11:04:00,27.0,17.1,28.67,NNE,22,7.8,7.8,66,0.00,CLR,,0.00,WeatherDisplay:10.37,2013-12-22 17:04:00,
2013-12-22 11:05:00,27.0,17.1,28.67,NNE,22,8.1,8.1,66,0.00,CLR,,0.00,WeatherDisplay:10.37,2013-12-22 17:05:00,
2013-12-22 11:06:00,27.1,17.3,28.67,NNW,338,8.1,8.1,66,0.00,CLR,,0.00,WeatherDisplay:10.37,2013-12-22 17:06:00,
2013-12-22 11:09:00,27.0,17.5,28.67,NW,315,6.9,6.9,67,0.00,CLR,,0.00,WeatherDisplay:10.37,2013-12-22 17:09:00,
2013-12-22 11:10:00,26.6,17.5,28.67,NNW,338,5.8,5.8,68,0.00,CLR,,0.00,WeatherDisplay:10.37,2013-12-22 17:10:00,
2013-12-22 11:11:00,26.6,17.5,28.67,NNW,338,5.8,5.8,68,0.00,CLR,,0.00,WeatherDisplay:10.37,2013-12-22 17:11:00,
2013-12-22 11:14:00,26.4,17.6,28.67,NW,315,8.5,8.5,69,0.00,CLR,,0.00,WeatherDisplay:10.37,2013-12-22 17:14:00,
2013-12-22 11:15:00,26.6,17.8,28.67,NNW,338,8.1,8.1,69,0.00,CLR,,0.00,WeatherDisplay:10.37,2013-12-22 17:15:00,
2013-12-22 11:16:00,26.6,17.8,28.67,NNW,338,5.8,5.8,69,0.00,CLR,,0.00,WeatherDisplay:10.37,2013-12-22 17:16:00,
2013-12-22 11:17:00,26.8,18.0,28.67,North,0,4.6,4.6,69,0.00,CLR,,0.00,WeatherDisplay:10.37,2013-12-22 17:17:00,
2013-12-22 11:19:00,27.0,18.5,28.67,NW,315,5.8,5.8,70,0.00,CLR,,0.00,WeatherDisplay:10.37,2013-12-22 17:19:00,
2013-12-22 11:20:00,26.6,18.1,28.67,NNE,22,5.8,5.8,70,0.00,CLR,,0.00,WeatherDisplay:10.37,2013-12-22 17:20:00,
2013-12-22 11:21:00,26.6,18.1,28.67,NNE,22,5.9,5.9,70,0.00,CLR,,0.00,WeatherDisplay:10.37,2013-12-22 17:21:00,
2013-12-22 11:22:00,26.8,18.0,28.67,NNE,22,5.8,5.8,69,0.00,CLR,,0.00,WeatherDisplay:10.37,2013-12-22 17:22:00,
2013-12-22 11:24:00,27.0,18.5,28.67,North,0,5.4,5.4,70,0.00,CLR,,0.00,WeatherDisplay:10.37,2013-12-22 17:24:00,
2013-12-22 11:26:00,26.6,17.8,28.67,NNE,22,5.9,5.9,69,0.00,CLR,,0.00,WeatherDisplay:10.37,2013-12-22 17:26:00,
2013-12-22 11:28:00,26.6,17.8,28.67,NNE,22,4.6,4.6,69,0.00,CLR,,0.00,WeatherDisplay:10.37,2013-12-22 17:28:00,
2013-12-22 11:29:00,26.8,18.0,28.67,NNW,338,4.6,4.6,69,0.00,CLR,,0.00,WeatherDisplay:10.37,2013-12-22 17:29:00,
2013-12-22 11:31:00,27.0,18.5,28.67,North,0,4.6,4.6,70,0.00,CLR,,0.00,WeatherDisplay:10.37,2013-12-22 17:31:00,
2013-12-22 11:32:00,27.0,18.5,28.67,North,0,2.6,2.9,70,0.00,CLR,,0.00,WeatherDisplay:10.37,2013-12-22 17:32:00,
2013-12-22 11:33:00,27.1,18.6,28.67,NNE,22,4.6,4.6,70,0.00,CLR,,0.00,WeatherDisplay:10.37,2013-12-22 17:33:00,
2013-12-22 11:34:00,27.1,18.6,28.67,North,0,5.4,5.4,70,0.00,CLR,,0.00,WeatherDisplay:10.37,2013-12-22 17:34:00,
2013-12-22 11:35:00,27.1,18.6,28.67,North,0,5.4,5.4,70,0.00,CLR,,0.00,WeatherDisplay:10.37,2013-12-22 17:35:00,
2013-12-22 11:37:00,27.1,18.3,28.67,North,0,6.0,6.0,69,0.00,CLR,,0.00,WeatherDisplay:10.37,2013-12-22 17:37:00,
2013-12-22 11:38:00,27.1,18.3,28.67,North,0,6.0,6.0,69,0.00,CLR,,0.00,WeatherDisplay:10.37,2013-12-22 17:38:00,
2013-12-22 11:40:00,27.1,18.3,28.67,NNE,22,5.8,5.8,69,0.00,CLR,,0.00,WeatherDisplay:10.37,2013-12-22 17:40:00,
2013-12-22 11:42:00,27.1,18.0,28.67,NNE,22,4.6,4.6,68,0.00,CLR,,0.00,WeatherDisplay:10.37,2013-12-22 17:42:00,
2013-12-22 11:43:00,27.1,18.0,28.67,NNE,22,4.6,4.6,68,0.00,CLR,,0.00,WeatherDisplay:10.37,2013-12-22 17:43:00,
2013-12-22 11:45:00,27.5,18.3,28.67,NNE,22,3.5,3.5,68,0.00,CLR,,0.00,WeatherDisplay:10.37,2013-12-22 17:45:00,
2013-12-22 11:48:00,27.0,17.5,28.67,NNW,338,6.9,6.9,67,0.00,CLR,,0.00,WeatherDisplay:10.37,2013-12-22 17:48:00,
2013-12-22 11:49:00,27.1,17.6,28.67,North,0,6.9,6.9,67,0.00,CLR,,0.00,WeatherDisplay:10.37,2013-12-22 17:49:00,
2013-12-22 11:50:00,27.1,17.6,28.67,North,0,5.8,5.8,67,0.00,CLR,,0.00,WeatherDisplay:10.37,2013-12-22 17:50:00,
2013-12-22 11:54:00,26.8,17.3,28.67,NNW,338,6.9,6.9,67,0.00,CLR,,0.00,WeatherDisplay:10.37,2013-12-22 17:54:00,
2013-12-22 11:55:00,27.3,18.1,28.67,NNW,338,4.9,4.9,68,0.00,CLR,,0.00,WeatherDisplay:10.37,2013-12-22 17:55:00,
2013-12-22 11:59:00,27.0,17.5,28.67,NNE,22,6.9,6.9,67,0.00,CLR,,0.00,WeatherDisplay:10.37,2013-12-22 17:59:00,
2013-12-22 12:00:00,26.6,17.1,28.67,NNW,338,5.4,5.4,67,0.00,CLR,,0.00,WeatherDisplay:10.37,2013-12-22 18:00:00,
2013-12-22 12:04:00,26.4,16.9,28.67,NNW,338,8.1,8.1,67,0.00,CLR,,0.00,WeatherDisplay:10.37,2013-12-22 18:04:00,
2013-12-22 12:05:00,26.4,16.9,28.67,North,0,8.1,8.1,67,0.00,CLR,,0.00,WeatherDisplay:10.37,2013-12-22 18:05:00,
2013-12-22 12:06:00,26.6,17.1,28.67,NNW,338,6.9,6.9,67,0.00,CLR,,0.00,WeatherDisplay:10.37,2013-12-22 18:06:00,
2013-12-22 12:09:00,27.3,17.8,28.67,NNW,338,4.6,4.6,67,0.00,CLR,,0.00,WeatherDisplay:10.37,2013-12-22 18:09:00,
2013-12-22 12:10:00,27.3,17.8,28.70,North,0,3.8,3.8,67,0.00,CLR,,0.00,WeatherDisplay:10.37,2013-12-22 18:10:00,
2013-12-22 12:11:00,27.5,18.0,28.70,North,0,4.6,4.6,67,0.00,CLR,,0.00,WeatherDisplay:10.37,2013-12-22 18:11:00,
2013-12-22 12:14:00,27.7,18.1,28.70,NNE,22,5.8,5.8,67,0.00,CLR,,0.00,WeatherDisplay:10.37,2013-12-22 18:14:00,
2013-12-22 12:15:00,27.9,18.3,28.70,NNE,22,5.8,5.8,67,0.00,CLR,,0.00,WeatherDisplay:10.37,2013-12-22 18:15:00,
2013-12-22 12:16:00,27.9,18.3,28.70,NNE,22,3.5,3.5,67,0.00,CLR,,0.00,WeatherDisplay:10.37,2013-12-22 18:16:00,
2013-12-22 12:17:00,27.9,18.3,28.70,NE,45,3.8,3.8,67,0.00,CLR,,0.00,WeatherDisplay:10.37,2013-12-22 18:17:00,
2013-12-22 12:19:00,27.5,17.6,28.70,ENE,68,5.8,5.8,66,0.00,CLR,,0.00,WeatherDisplay:10.37,2013-12-22 18:19:00,
2013-12-22 12:20:00,27.5,17.6,28.70,ENE,68,5.8,5.8,66,0.00,CLR,,0.00,WeatherDisplay:10.37,2013-12-22 18:20:00,
2013-12-22 12:21:00,27.3,17.5,28.70,East,90,5.8,5.8,66,0.00,CLR,,0.00,WeatherDisplay:10.37,2013-12-22 18:21:00,
2013-12-22 12:22:00,27.1,16.9,28.70,NE,45,5.8,5.8,65,0.00,CLR,,0.00,WeatherDisplay:10.37,2013-12-22 18:22:00,
2013-12-22 12:25:00,27.3,17.5,28.70,NNE,28,3.0,6.0,66,0.00,CLR,,0.00,WeatherDisplay:10.37,2013-12-22 18:25:00,
2013-12-22 12:26:00,27.5,18.0,28.70,NNW,338,4.6,4.6,67,0.00,CLR,,0.00,WeatherDisplay:10.37,2013-12-22 18:26:00,
2013-12-22 12:27:00,27.5,18.0,28.70,North,0,4.6,4.6,67,0.00,CLR,,0.00,WeatherDisplay:10.37,2013-12-22 18:27:00,
2013-12-22 12:30:00,27.3,17.5,28.70,North,8,3.0,6.0,66,0.00,CLR,,0.00,WeatherDisplay:10.37,2013-12-22 18:30:00,
2013-12-22 12:32:00,27.3,17.8,28.70,NNW,338,4.6,4.6,67,0.00,CLR,,0.00,WeatherDisplay:10.37,2013-12-22 18:32:00,
2013-12-22 12:33:00,27.1,17.6,28.70,North,0,5.8,5.8,67,0.00,CLR,,0.00,WeatherDisplay:10.37,2013-12-22 18:33:00,
2013-12-22 12:34:00,27.3,17.8,28.70,NNW,338,5.8,5.8,67,0.00,CLR,,0.00,WeatherDisplay:10.37,2013-12-22 18:34:00,
2013-12-22 12:35:00,27.1,17.6,28.70,NNW,338,6.0,6.0,67,0.00,CLR,,0.00,WeatherDisplay:10.37,2013-12-22 18:35:00,
2013-12-22 12:37:00,27.3,17.8,28.70,NNW,338,4.6,4.6,67,0.00,CLR,,0.00,WeatherDisplay:10.37,2013-12-22 18:37:00,
2013-12-22 12:38:00,27.3,17.8,28.70,NW,315,4.6,4.6,67,0.00,CLR,,0.00,WeatherDisplay:10.37,2013-12-22 18:38:00,
2013-12-22 12:39:00,27.3,17.8,28.70,NNW,338,4.6,4.6,67,0.00,CLR,,0.00,WeatherDisplay:10.37,2013-12-22 18:39:00,
2013-12-22 12:40:00,27.5,18.0,28.67,NW,315,4.6,4.6,67,0.00,CLR,,0.00,WeatherDisplay:10.37,2013-12-22 18:40:00,
2013-12-22 12:42:00,27.5,18.3,28.67,North,0,5.6,5.6,68,0.00,CLR,,0.00,WeatherDisplay:10.37,2013-12-22 18:42:00,
2013-12-22 12:43:00,27.3,17.8,28.67,North,0,5.8,5.8,67,0.00,CLR,,0.00,WeatherDisplay:10.37,2013-12-22 18:43:00,
2013-12-22 12:44:00,27.0,17.5,28.67,NW,315,5.8,5.8,67,0.00,CLR,,0.00,WeatherDisplay:10.37,2013-12-22 18:44:00,
2013-12-22 12:45:00,27.0,17.5,28.67,NNW,338,5.8,5.8,67,0.00,CLR,,0.00,WeatherDisplay:10.37,2013-12-22 18:45:00,
2013-12-22 12:46:00,27.1,17.6,28.67,NNE,22,4.3,4.3,67,0.00,CLR,,0.00,WeatherDisplay:10.37,2013-12-22 18:46:00,
2013-12-22 12:47:00,27.1,17.6,28.67,North,0,5.8,5.8,67,0.00,CLR,,0.00,WeatherDisplay:10.37,2013-12-22 18:47:00,
2013-12-22 12:48:00,27.0,17.5,28.67,NNE,22,5.8,5.8,67,0.00,CLR,,0.00,WeatherDisplay:10.37,2013-12-22 18:48:00,
2013-12-22 12:50:00,27.1,17.6,28.67,NNE,22,4.6,4.6,67,0.00,CLR,,0.00,WeatherDisplay:10.37,2013-12-22 18:50:00,
2013-12-22 12:51:00,27.1,18.0,28.67,NNW,338,4.6,4.6,68,0.00,CLR,,0.00,WeatherDisplay:10.37,2013-12-22 18:51:00,
2013-12-22 12:52:00,27.1,18.0,28.67,NNE,22,4.6,4.6,68,0.00,CLR,,0.00,WeatherDisplay:10.37,2013-12-22 18:52:00,
2013-12-22 12:53:00,27.3,18.1,28.67,NNE,22,4.6,4.6,68,0.00,CLR,,0.00,WeatherDisplay:10.37,2013-12-22 18:53:00,
2013-12-22 12:54:00,27.1,18.0,28.67,NNE,22,3.5,3.5,68,0.00,CLR,,0.00,WeatherDisplay:10.37,2013-12-22 18:54:00,
2013-12-22 12:55:00,27.5,18.3,28.70,NNW,338,2.4,2.4,68,0.00,CLR,,0.00,WeatherDisplay:10.37,2013-12-22 18:55:00,
2013-12-22 12:56:00,27.3,18.1,28.70,NNW,338,3.5,3.5,68,0.00,CLR,,0.00,WeatherDisplay:10.37,2013-12-22 18:56:00,
2013-12-22 12:58:00,27.0,17.8,28.70,NNW,338,5.6,5.6,68,0.00,CLR,,0.00,WeatherDisplay:10.37,2013-12-22 18:58:00,
2013-12-22 12:59:00,26.4,17.3,28.70,North,0,5.8,5.8,68,0.00,CLR,,0.00,WeatherDisplay:10.37,2013-12-22 18:59:00,
2013-12-22 13:00:00,26.4,17.3,28.70,NW,315,5.8,5.8,68,0.00,CLR,,0.00,WeatherDisplay:10.37,2013-12-22 19:00:00,
2013-12-22 13:01:00,26.4,17.3,28.70,NNW,338,5.8,5.8,68,0.00,CLR,,0.00,WeatherDisplay:10.37,2013-12-22 19:01:00,
2013-12-22 13:02:00,26.4,17.6,28.70,NNW,338,4.9,4.9,69,0.00,CLR,,0.00,WeatherDisplay:10.37,2013-12-22 19:02:00,
2013-12-22 13:03:00,26.4,17.6,28.70,WNW,292,4.6,4.6,69,0.00,CLR,,0.00,WeatherDisplay:10.37,2013-12-22 19:03:00,
2013-12-22 13:04:00,26.6,17.8,28.70,NNE,22,4.6,4.6,69,0.00,CLR,,0.00,WeatherDisplay:10.37,2013-12-22 19:04:00,
2013-12-22 13:05:00,26.8,18.0,28.70,NNE,22,3.5,3.5,69,0.00,CLR,,0.00,WeatherDisplay:10.37,2013-12-22 19:05:00,
2013-12-22 13:06:00,27.0,18.1,28.70,NNE,22,3.5,3.5,69,0.00,CLR,,0.00,WeatherDisplay:10.37,2013-12-22 19:06:00,
2013-12-22 13:07:00,27.0,18.1,28.70,NNE,22,2.3,2.3,69,0.00,CLR,,0.00,WeatherDisplay:10.37,2013-12-22 19:07:00,
2013-12-22 13:08:00,27.0,18.1,28.70,NNE,22,2.3,2.3,69,0.00,CLR,,0.00,WeatherDisplay:10.37,2013-12-22 19:08:00,
2013-12-22 13:09:00,27.1,18.3,28.67,NNE,22,3.6,3.6,69,0.00,CLR,,0.00,WeatherDisplay:10.37,2013-12-22 19:09:00,
2013-12-22 13:11:00,27.1,18.3,28.67,North,0,4.6,4.6,69,0.00,CLR,,0.00,WeatherDisplay:10.37,2013-12-22 19:11:00,
2013-12-22 13:13:00,27.0,18.1,28.67,North,0,3.5,3.5,69,0.00,CLR,,0.00,WeatherDisplay:10.37,2013-12-22 19:13:00,
2013-12-22 13:14:00,26.8,18.0,28.67,NW,315,5.8,5.8,69,0.00,CLR,,0.00,WeatherDisplay:10.37,2013-12-22 19:14:00,
2013-12-22 13:15:00,26.8,17.6,28.67,NW,315,4.6,4.6,68,0.00,CLR,,0.00,WeatherDisplay:10.37,2013-12-22 19:15:00,
2013-12-22 13:16:00,26.6,17.5,28.67,NW,315,4.6,4.6,68,0.00,CLR,,0.00,WeatherDisplay:10.37,2013-12-22 19:16:00,
2013-12-22 13:18:00,27.0,17.8,28.67,NNW,338,3.5,3.5,68,0.00,CLR,,0.00,WeatherDisplay:10.37,2013-12-22 19:18:00,
2013-12-22 13:19:00,27.0,17.8,28.67,NNW,338,3.5,3.5,68,0.00,CLR,,0.00,WeatherDisplay:10.37,2013-12-22 19:19:00,
2013-12-22 13:20:00,26.8,17.6,28.67,NW,315,5.8,5.8,68,0.00,CLR,,0.00,WeatherDisplay:10.37,2013-12-22 19:20:00,
2013-12-22 13:21:00,26.8,17.6,28.67,NW,315,4.6,4.6,68,0.00,CLR,,0.00,WeatherDisplay:10.37,2013-12-22 19:21:00,
2013-12-22 13:24:00,26.8,17.6,28.67,North,0,3.5,3.5,68,0.00,CLR,,0.00,WeatherDisplay:10.37,2013-12-22 19:24:00,
2013-12-22 13:25:00,26.8,17.6,28.67,NNW,338,4.6,4.6,68,0.00,CLR,,0.00,WeatherDisplay:10.37,2013-12-22 19:25:00,
2013-12-22 13:26:00,26.8,17.6,28.67,NNW,338,3.8,3.8,68,0.00,CLR,,0.00,WeatherDisplay:10.37,2013-12-22 19:26:00,
2013-12-22 13:29:00,27.0,17.8,28.67,NW,315,3.5,3.5,68,0.00,CLR,,0.00,WeatherDisplay:10.37,2013-12-22 19:29:00,
2013-12-22 13:30:00,27.1,18.3,28.67,NNW,338,2.9,2.9,69,0.00,CLR,,0.00,WeatherDisplay:10.37,2013-12-22 19:30:00,
2013-12-22 13:31:00,27.1,18.3,28.67,WNW,292,2.6,2.6,69,0.00,CLR,,0.00,WeatherDisplay:10.37,2013-12-22 19:31:00,
2013-12-22 13:34:00,27.1,18.0,28.67,NNW,338,3.5,3.5,68,0.00,CLR,,0.00,WeatherDisplay:10.37,2013-12-22 19:34:00,
2013-12-22 13:36:00,27.1,18.3,28.67,NNE,22,3.5,3.5,69,0.00,CLR,,0.00,WeatherDisplay:10.37,2013-12-22 19:36:00,
2013-12-22 13:37:00,27.1,18.3,28.67,North,0,3.5,3.5,69,0.00,CLR,,0.00,WeatherDisplay:10.37,2013-12-22 19:37:00,
2013-12-22 13:39:00,27.3,18.5,28.67,NW,315,2.4,2.4,69,0.00,CLR,,0.00,WeatherDisplay:10.37,2013-12-22 19:39:00,
2013-12-22 13:40:00,27.5,18.6,28.68,NNW,342,2.0,3.0,69,0.00,CLR,,0.00,WeatherDisplay:10.37,2013-12-22 19:40:00,
2013-12-22 13:41:00,27.5,18.7,28.70,NW,315,2.6,2.6,69,0.00,CLR,,0.00,WeatherDisplay:10.37,2013-12-22 19:41:00,
2013-12-22 13:42:00,27.5,18.7,28.70,NNW,338,4.6,4.6,69,0.00,CLR,,0.00,WeatherDisplay:10.37,2013-12-22 19:42:00,
2013-12-22 13:44:00,27.5,18.7,28.70,NNW,338,3.5,3.5,69,0.00,CLR,,0.00,WeatherDisplay:10.37,2013-12-22 19:44:00,
2013-12-22 13:45:00,27.5,18.7,28.70,NW,315,2.9,2.9,69,0.00,CLR,,0.00,WeatherDisplay:10.37,2013-12-22 19:45:00,
2013-12-22 13:46:00,27.5,18.7,28.70,NNW,338,3.5,3.5,69,0.00,CLR,,0.00,WeatherDisplay:10.37,2013-12-22 19:46:00,
2013-12-22 13:48:00,27.5,18.7,28.70,NW,315,3.5,3.5,69,0.00,CLR,,0.00,WeatherDisplay:10.37,2013-12-22 19:48:00,
2013-12-22 13:50:00,27.7,18.8,28.70,NW,315,2.6,2.6,69,0.00,CLR,,0.00,WeatherDisplay:10.37,2013-12-22 19:50:00,
2013-12-22 13:51:00,27.5,18.7,28.70,NW,315,3.5,3.5,69,0.00,CLR,,0.00,WeatherDisplay:10.37,2013-12-22 19:51:00,
2013-12-22 13:52:00,27.5,18.7,28.70,NW,315,3.5,3.5,69,0.00,CLR,,0.00,WeatherDisplay:10.37,2013-12-22 19:52:00,
2013-12-22 13:53:00,27.5,18.7,28.70,NNW,338,3.5,3.5,69,0.00,CLR,,0.00,WeatherDisplay:10.37,2013-12-22 19:53:00,
2013-12-22 13:55:00,27.5,18.7,28.70,NW,315,2.6,2.6,69,0.00,CLR,,0.00,WeatherDisplay:10.37,2013-12-22 19:55:00,
2013-12-22 13:56:00,27.5,18.7,28.70,NW,315,2.9,2.9,69,0.00,CLR,,0.00,WeatherDisplay:10.37,2013-12-22 19:56:00,
2013-12-22 13:57:00,27.5,18.7,28.70,NNW,338,3.6,3.6,69,0.00,CLR,,0.00,WeatherDisplay:10.37,2013-12-22 19:57:00,
2013-12-22 13:58:00,27.5,18.7,28.70,NW,315,3.5,3.5,69,0.00,CLR,,0.00,WeatherDisplay:10.37,2013-12-22 19:58:00,
2013-12-22 14:00:00,27.7,18.8,28.70,NNW,338,2.6,2.6,69,0.00,CLR,,0.00,WeatherDisplay:10.37,2013-12-22 20:00:00,
2013-12-22 14:01:00,27.7,18.8,28.70,NNW,338,2.9,2.9,69,0.00,CLR,,0.00,WeatherDisplay:10.37,2013-12-22 20:01:00,
2013-12-22 14:02:00,27.7,19.2,28.70,NW,315,3.5,3.5,70,0.00,CLR,,0.00,WeatherDisplay:10.37,2013-12-22 20:02:00,
2013-12-22 14:03:00,27.9,19.3,28.70,NW,315,2.3,2.3,70,0.00,CLR,,0.00,WeatherDisplay:10.37,2013-12-22 20:03:00,
2013-12-22 14:05:00,27.9,19.3,28.70,NW,315,3.5,3.5,70,0.00,CLR,,0.00,WeatherDisplay:10.37,2013-12-22 20:05:00,
2013-12-22 14:06:00,27.9,19.3,28.70,NW,315,3.5,3.5,70,0.00,CLR,,0.00,WeatherDisplay:10.37,2013-12-22 20:06:00,
2013-12-22 14:08:00,27.5,18.7,28.70,NNW,338,4.6,4.6,69,0.00,CLR,,0.00,WeatherDisplay:10.37,2013-12-22 20:08:00,
2013-12-22 14:09:00,27.5,18.7,28.70,NW,315,3.5,3.5,69,0.00,CLR,,0.00,WeatherDisplay:10.37,2013-12-22 20:09:00,
2013-12-22 14:10:00,27.3,18.5,28.73,NNW,338,4.3,4.3,69,0.00,CLR,,0.00,WeatherDisplay:10.37,2013-12-22 20:10:00,
2013-12-22 14:11:00,27.1,18.0,28.73,NNW,338,4.6,4.6,68,0.00,CLR,,0.00,WeatherDisplay:10.37,2013-12-22 20:11:00,
2013-12-22 14:13:00,27.3,18.5,28.73,NW,315,2.4,2.4,69,0.00,CLR,,0.00,WeatherDisplay:10.37,2013-12-22 20:13:00,
2013-12-22 14:14:00,27.3,18.5,28.73,NNW,338,3.5,3.5,69,0.00,CLR,,0.00,WeatherDisplay:10.37,2013-12-22 20:14:00,
2013-12-22 14:15:00,27.3,18.5,28.73,NNW,338,4.6,4.6,69,0.00,CLR,,0.00,WeatherDisplay:10.37,2013-12-22 20:15:00,
2013-12-22 14:16:00,27.1,18.3,28.73,NW,315,4.6,4.6,69,0.00,CLR,,0.00,WeatherDisplay:10.37,2013-12-22 20:16:00,
2013-12-22 14:18:00,27.1,18.3,28.73,WNW,292,3.8,3.8,69,0.00,CLR,,0.00,WeatherDisplay:10.37,2013-12-22 20:18:00,
2013-12-22 14:19:00,27.0,18.1,28.73,WNW,292,3.5,3.5,69,0.00,CLR,,0.00,WeatherDisplay:10.37,2013-12-22 20:19:00,
2013-12-22 14:20:00,27.0,18.1,28.73,NW,315,3.5,3.5,69,0.00,CLR,,0.00,WeatherDisplay:10.37,2013-12-22 20:20:00,
2013-12-22 14:21:00,27.0,18.1,28.73,NW,315,3.5,3.5,69,0.00,CLR,,0.00,WeatherDisplay:10.37,2013-12-22 20:21:00,
2013-12-22 14:24:00,27.0,18.1,28.73,NNW,338,4.3,4.3,69,0.00,CLR,,0.00,WeatherDisplay:10.37,2013-12-22 20:24:00,
2013-12-22 14:25:00,26.8,18.0,28.73,NNW,338,4.6,4.6,69,0.00,CLR,,0.00,WeatherDisplay:10.37,2013-12-22 20:25:00,
2013-12-22 14:26:00,26.6,18.1,28.73,NW,315,4.3,4.3,70,0.00,CLR,,0.00,WeatherDisplay:10.37,2013-12-22 20:26:00,
2013-12-22 14:27:00,26.6,18.1,28.73,North,0,4.6,4.6,70,0.00,CLR,,0.00,WeatherDisplay:10.37,2013-12-22 20:27:00,
2013-12-22 14:29:00,26.4,18.0,28.73,NNW,338,4.6,4.6,70,0.00,CLR,,0.00,WeatherDisplay:10.37,2013-12-22 20:29:00,
2013-12-22 14:30:00,26.2,17.8,28.73,NW,315,5.8,5.8,70,0.00,CLR,,0.00,WeatherDisplay:10.37,2013-12-22 20:30:00,
2013-12-22 14:31:00,26.1,17.9,28.73,North,0,4.6,4.6,71,0.00,CLR,,0.00,WeatherDisplay:10.37,2013-12-22 20:31:00,
2013-12-22 14:32:00,26.1,17.9,28.73,NW,315,4.6,4.6,71,0.00,CLR,,0.00,WeatherDisplay:10.37,2013-12-22 20:32:00,
2013-12-22 14:34:00,26.2,18.1,28.73,NW,315,3.5,3.5,71,0.00,CLR,,0.00,WeatherDisplay:10.37,2013-12-22 20:34:00,
2013-12-22 14:35:00,26.2,18.1,28.73,NNW,338,3.5,3.5,71,0.00,CLR,,0.00,WeatherDisplay:10.37,2013-12-22 20:35:00,
2013-12-22 14:36:00,26.2,18.4,28.73,NW,315,3.5,3.5,72,0.00,CLR,,0.00,WeatherDisplay:10.37,2013-12-22 20:36:00,
2013-12-22 14:37:00,26.4,18.6,28.73,NW,315,3.5,3.5,72,0.00,CLR,,0.00,WeatherDisplay:10.37,2013-12-22 20:37:00,
2013-12-22 14:39:00,26.4,18.6,28.73,NNW,338,4.9,4.9,72,0.00,CLR,,0.00,WeatherDisplay:10.37,2013-12-22 20:39:00,
2013-12-22 14:40:00,26.2,18.8,28.73,NW,315,4.6,4.6,73,0.00,CLR,,0.00,WeatherDisplay:10.37,2013-12-22 20:40:00,
2013-12-22 14:41:00,26.2,18.8,28.73,NW,315,4.6,4.6,73,0.00,CLR,,0.00,WeatherDisplay:10.37,2013-12-22 20:41:00,
2013-12-22 14:42:00,26.2,18.8,28.73,NW,315,4.6,4.6,73,0.00,CLR,,0.00,WeatherDisplay:10.37,2013-12-22 20:42:00,
2013-12-22 14:44:00,26.1,18.6,28.73,WNW,292,3.5,3.8,73,0.00,CLR,,0.00,WeatherDisplay:10.37,2013-12-22 20:44:00,
2013-12-22 14:45:00,26.1,18.6,28.73,NW,315,4.6,4.6,73,0.00,CLR,,0.00,WeatherDisplay:10.37,2013-12-22 20:45:00,
2013-12-22 14:46:00,26.1,18.9,28.73,WNW,292,3.6,3.6,74,0.00,CLR,,0.00,WeatherDisplay:10.37,2013-12-22 20:46:00,
2013-12-22 14:47:00,26.1,18.9,28.73,WNW,292,3.5,3.5,74,0.00,CLR,,0.00,WeatherDisplay:10.37,2013-12-22 20:47:00,
2013-12-22 14:48:00,26.1,18.9,28.73,NW,315,3.5,3.5,74,0.00,CLR,,0.00,WeatherDisplay:10.37,2013-12-22 20:48:00,
2013-12-22 14:49:00,26.1,18.9,28.73,NW,315,3.5,3.5,74,0.00,CLR,,0.00,WeatherDisplay:10.37,2013-12-22 20:49:00,
2013-12-22 14:50:00,26.1,18.9,28.73,NW,315,3.5,3.5,74,0.00,CLR,,0.00,WeatherDisplay:10.37,2013-12-22 20:50:00,
2013-12-22 14:51:00,26.1,18.9,28.73,WNW,292,3.5,3.5,74,0.00,CLR,,0.00,WeatherDisplay:10.37,2013-12-22 20:51:00,
2013-12-22 14:52:00,26.1,19.2,28.73,NW,315,3.5,3.5,75,0.00,CLR,,0.00,WeatherDisplay:10.37,2013-12-22 20:52:00,
2013-12-22 14:53:00,26.1,19.2,28.73,NW,315,3.5,3.5,75,0.00,CLR,,0.00,WeatherDisplay:10.37,2013-12-22 20:53:00,
2013-12-22 14:55:00,26.1,19.2,28.73,NNW,338,2.3,2.3,75,0.00,CLR,,0.00,WeatherDisplay:10.37,2013-12-22 20:55:00,
2013-12-22 14:56:00,26.2,19.4,28.73,NNW,338,2.3,2.3,75,0.00,CLR,,0.00,WeatherDisplay:10.37,2013-12-22 20:56:00,
2013-12-22 14:57:00,26.4,19.6,28.73,NNW,338,3.1,3.1,75,0.00,CLR,,0.00,WeatherDisplay:10.37,2013-12-22 20:57:00,
2013-12-22 14:58:00,26.4,19.6,28.73,NW,315,3.5,3.5,75,0.00,CLR,,0.00,WeatherDisplay:10.37,2013-12-22 20:58:00,
2013-12-22 14:59:00,26.6,20.1,28.73,NW,315,2.3,2.4,76,0.00,CLR,,0.00,WeatherDisplay:10.37,2013-12-22 20:59:00,
2013-12-22 15:00:00,26.6,20.1,28.73,NW,315,2.4,2.4,76,0.00,CLR,,0.00,WeatherDisplay:10.37,2013-12-22 21:00:00,
2013-12-22 15:02:00,26.8,20.2,28.73,NW,315,2.3,2.3,76,0.00,CLR,,0.00,WeatherDisplay:10.37,2013-12-22 21:02:00,
2013-12-22 15:03:00,26.8,20.2,28.73,NW,315,2.9,2.9,76,0.00,CLR,,0.00,WeatherDisplay:10.37,2013-12-22 21:03:00,
2013-12-22 15:05:00,26.8,20.2,28.73,NW,315,2.3,2.3,76,0.00,CLR,,0.00,WeatherDisplay:10.37,2013-12-22 21:05:00,
2013-12-22 15:06:00,26.8,20.2,28.73,NW,315,2.3,2.3,76,0.00,CLR,,0.00,WeatherDisplay:10.37,2013-12-22 21:06:00,
2013-12-22 15:07:00,26.8,20.2,28.73,NW,315,2.4,2.4,76,0.00,CLR,,0.00,WeatherDisplay:10.37,2013-12-22 21:07:00,
2013-12-22 15:08:00,26.6,20.1,28.73,WNW,292,2.6,2.6,76,0.00,CLR,,0.00,WeatherDisplay:10.37,2013-12-22 21:08:00,
2013-12-22 15:10:00,26.4,19.9,28.76,NNW,338,3.5,3.5,76,0.00,CLR,,0.00,WeatherDisplay:10.37,2013-12-22 21:10:00,
2013-12-22 15:11:00,26.2,19.7,28.76,WNW,292,2.4,2.4,76,0.00,CLR,,0.00,WeatherDisplay:10.37,2013-12-22 21:11:00,
2013-12-22 15:12:00,26.2,19.7,28.76,WNW,292,2.3,2.3,76,0.00,CLR,,0.00,WeatherDisplay:10.37,2013-12-22 21:12:00,
2013-12-22 15:13:00,26.1,19.5,28.76,WNW,292,3.1,3.1,76,0.00,CLR,,0.00,WeatherDisplay:10.37,2013-12-22 21:13:00,
2013-12-22 15:14:00,26.1,19.5,28.76,WNW,292,2.6,2.6,76,0.00,CLR,,0.00,WeatherDisplay:10.37,2013-12-22 21:14:00,
2013-12-22 15:16:00,26.1,19.5,28.76,West,270,2.6,2.6,76,0.00,CLR,,0.00,WeatherDisplay:10.37,2013-12-22 21:16:00,
2013-12-22 15:17:00,26.1,19.5,28.76,NW,315,2.4,2.4,76,0.00,CLR,,0.00,WeatherDisplay:10.37,2013-12-22 21:17:00,
2013-12-22 15:19:00,26.1,19.5,28.76,WNW,292,2.3,2.3,76,0.00,CLR,,0.00,WeatherDisplay:10.37,2013-12-22 21:19:00,
2013-12-22 15:21:00,26.1,19.5,28.76,WNW,292,3.5,3.5,76,0.00,CLR,,0.00,WeatherDisplay:10.37,2013-12-22 21:21:00,
2013-12-22 15:22:00,26.1,19.5,28.76,WNW,292,3.5,3.5,76,0.00,CLR,,0.00,WeatherDisplay:10.37,2013-12-22 21:22:00,
2013-12-22 15:24:00,26.2,20.0,28.76,West,270,2.4,2.4,77,0.00,CLR,,0.00,WeatherDisplay:10.37,2013-12-22 21:24:00,
2013-12-22 15:25:00,26.2,20.0,28.76,WNW,292,2.4,2.4,77,0.00,CLR,,0.00,WeatherDisplay:10.37,2013-12-22 21:25:00,
2013-12-22 15:27:00,26.4,20.2,28.76,WNW,292,1.2,1.2,77,0.00,CLR,,0.00,WeatherDisplay:10.37,2013-12-22 21:27:00,
2013-12-22 15:28:00,26.4,20.2,28.76,NW,315,2.4,2.4,77,0.00,CLR,,0.00,WeatherDisplay:10.37,2013-12-22 21:28:00,
2013-12-22 15:29:00,26.4,20.2,28.76,NW,315,2.3,2.3,77,0.00,CLR,,0.00,WeatherDisplay:10.37,2013-12-22 21:29:00,
2013-12-22 15:30:00,26.4,20.2,28.76,WNW,297,1.0,3.0,77,0.00,CLR,,0.00,WeatherDisplay:10.37,2013-12-22 21:30:00,
2013-12-22 15:32:00,26.1,19.8,28.76,NW,315,2.3,2.4,77,0.00,CLR,,0.00,WeatherDisplay:10.37,2013-12-22 21:32:00,
2013-12-22 15:33:00,26.1,19.8,28.76,WNW,292,2.3,2.4,77,0.00,CLR,,0.00,WeatherDisplay:10.37,2013-12-22 21:33:00,
2013-12-22 15:34:00,26.1,19.8,28.76,WNW,292,4.6,4.6,77,0.00,CLR,,0.00,WeatherDisplay:10.37,2013-12-22 21:34:00,
2013-12-22 15:35:00,26.1,19.8,28.76,WNW,292,4.6,4.6,77,0.00,CLR,,0.00,WeatherDisplay:10.37,2013-12-22 21:35:00,
2013-12-22 15:37:00,25.7,19.5,28.76,NW,315,3.5,3.5,77,0.00,CLR,,0.00,WeatherDisplay:10.37,2013-12-22 21:37:00,
2013-12-22 15:38:00,25.7,19.5,28.76,NW,315,3.5,3.5,77,0.00,CLR,,0.00,WeatherDisplay:10.37,2013-12-22 21:38:00,
2013-12-22 15:40:00,25.5,19.6,28.76,NNW,338,4.6,4.6,78,0.00,CLR,,0.00,WeatherDisplay:10.37,2013-12-22 21:40:00,
2013-12-22 15:43:00,25.3,19.4,28.76,NW,315,3.5,3.5,78,0.00,CLR,,0.00,WeatherDisplay:10.37,2013-12-22 21:43:00,
2013-12-22 15:45:00,25.3,19.4,28.76,NNW,338,3.5,3.5,78,0.00,CLR,,0.00,WeatherDisplay:10.37,2013-12-22 21:45:00,
2013-12-22 15:46:00,25.3,19.4,28.76,NNW,338,2.3,2.3,78,0.00,CLR,,0.00,WeatherDisplay:10.37,2013-12-22 21:46:00,
2013-12-22 15:48:00,25.3,19.4,28.76,NNW,338,3.1,3.1,78,0.00,CLR,,0.00,WeatherDisplay:10.37,2013-12-22 21:48:00,
2013-12-22 15:49:00,25.3,19.4,28.76,NNW,338,2.6,2.6,78,0.00,CLR,,0.00,WeatherDisplay:10.37,2013-12-22 21:49:00,
2013-12-22 15:50:00,25.2,19.3,28.76,WNW,292,2.4,2.4,78,0.00,CLR,,0.00,WeatherDisplay:10.37,2013-12-22 21:50:00,
2013-12-22 15:51:00,25.2,19.3,28.76,WNW,292,2.6,2.6,78,0.00,CLR,,0.00,WeatherDisplay:10.37,2013-12-22 21:51:00,
2013-12-22 15:53:00,25.2,19.6,28.76,WNW,292,2.4,2.4,79,0.00,CLR,,0.00,WeatherDisplay:10.37,2013-12-22 21:53:00,
2013-12-22 15:54:00,25.0,19.4,28.76,NW,315,2.9,2.9,79,0.00,CLR,,0.00,WeatherDisplay:10.37,2013-12-22 21:54:00,
2013-12-22 15:56:00,25.0,19.4,28.76,NNW,338,3.5,3.5,79,0.00,CLR,,0.00,WeatherDisplay:10.37,2013-12-22 21:56:00,
2013-12-22 15:58:00,24.8,19.5,28.76,NNW,338,2.3,2.3,80,0.00,CLR,,0.00,WeatherDisplay:10.37,2013-12-22 21:58:00,
2013-12-22 15:59:00,24.8,19.5,28.76,NNW,338,2.3,2.3,80,0.00,CLR,,0.00,WeatherDisplay:10.37,2013-12-22 21:59:00,
2013-12-22 16:00:00,24.8,19.5,28.76,NNW,338,2.3,2.3,80,0.00,CLR,,0.00,WeatherDisplay:10.37,2013-12-22 22:00:00,
2013-12-22 16:01:00,24.8,19.5,28.76,NNW,338,2.3,2.3,80,0.00,CLR,,0.00,WeatherDisplay:10.37,2013-12-22 22:01:00,
2013-12-22 16:03:00,24.8,19.5,28.76,NNW,338,2.3,2.3,80,0.00,CLR,,0.00,WeatherDisplay:10.37,2013-12-22 22:03:00,
2013-12-22 16:04:00,24.8,19.5,28.76,NNW,338,1.2,1.2,80,0.00,CLR,,0.00,WeatherDisplay:10.37,2013-12-22 22:04:00,
2013-12-22 16:05:00,24.8,19.5,28.76,NNW,338,1.2,0.0,80,0.00,CLR,,0.00,WeatherDisplay:10.37,2013-12-22 22:05:00,
2013-12-22 16:06:00,24.8,19.5,28.76,NNW,338,2.3,0.0,80,0.00,CLR,,0.00,WeatherDisplay:10.37,2013-12-22 22:06:00,
2013-12-22 16:08:00,24.6,19.3,28.76,NNW,338,1.2,1.2,80,0.00,CLR,,0.00,WeatherDisplay:10.37,2013-12-22 22:08:00,
2013-12-22 16:09:00,24.6,19.3,28.76,NNW,338,1.2,1.2,80,0.00,CLR,,0.00,WeatherDisplay:10.37,2013-12-22 22:09:00,
2013-12-22 16:10:00,24.6,19.3,28.76,NNW,338,2.3,2.3,80,0.00,CLR,,0.00,WeatherDisplay:10.37,2013-12-22 22:10:00,
2013-12-22 16:11:00,24.6,19.3,28.76,NNW,338,2.3,2.3,80,0.00,CLR,,0.00,WeatherDisplay:10.37,2013-12-22 22:11:00,
2013-12-22 16:12:00,24.6,19.3,28.76,NNW,338,2.3,2.3,80,0.00,CLR,,0.00,WeatherDisplay:10.37,2013-12-22 22:12:00,
2013-12-22 16:14:00,24.4,19.2,28.76,North,0,2.3,2.3,80,0.00,CLR,,0.00,WeatherDisplay:10.37,2013-12-22 22:14:00,
2013-12-22 16:15:00,24.4,19.2,28.76,North,0,2.0,2.0,80,0.00,CLR,,0.00,WeatherDisplay:10.37,2013-12-22 22:15:00,
2013-12-22 16:16:00,24.4,19.2,28.76,NW,315,2.4,2.4,80,0.00,CLR,,0.00,WeatherDisplay:10.37,2013-12-22 22:16:00,
2013-12-22 16:17:00,24.4,19.2,28.76,North,0,3.3,3.3,80,0.00,CLR,,0.00,WeatherDisplay:10.37,2013-12-22 22:17:00,
2013-12-22 16:19:00,24.3,19.0,28.76,NNW,338,3.5,3.5,80,0.00,CLR,,0.00,WeatherDisplay:10.37,2013-12-22 22:19:00,
2013-12-22 16:20:00,24.3,19.3,28.76,NNW,338,3.5,3.5,81,0.00,CLR,,0.00,WeatherDisplay:10.37,2013-12-22 22:20:00,
2013-12-22 16:21:00,24.3,19.3,28.76,NNW,338,4.3,4.3,81,0.00,CLR,,0.00,WeatherDisplay:10.37,2013-12-22 22:21:00,
2013-12-22 16:22:00,24.3,19.3,28.76,NNW,338,4.6,4.6,81,0.00,CLR,,0.00,WeatherDisplay:10.37,2013-12-22 22:22:00,
2013-12-22 16:24:00,24.1,19.1,28.79,NNW,338,2.3,2.3,81,0.00,CLR,,0.00,WeatherDisplay:10.37,2013-12-22 22:24:00,
2013-12-22 16:25:00,24.1,19.1,28.79,NNW,338,3.1,3.1,81,0.00,CLR,,0.00,WeatherDisplay:10.37,2013-12-22 22:25:00,
2013-12-22 16:26:00,24.1,19.1,28.79,NNW,338,3.5,3.5,81,0.00,CLR,,0.00,WeatherDisplay:10.37,2013-12-22 22:26:00,
2013-12-22 16:27:00,24.1,19.1,28.79,NNW,338,3.5,3.5,81,0.00,CLR,,0.00,WeatherDisplay:10.37,2013-12-22 22:27:00,
2013-12-22 16:29:00,23.9,18.9,28.79,NNW,338,2.4,2.4,81,0.00,CLR,,0.00,WeatherDisplay:10.37,2013-12-22 22:29:00,
2013-12-22 16:31:00,23.9,19.2,28.79,North,0,3.5,3.5,82,0.00,CLR,,0.00,WeatherDisplay:10.37,2013-12-22 22:31:00,
2013-12-22 16:32:00,23.9,19.2,28.79,NNW,338,1.4,1.4,82,0.00,CLR,,0.00,WeatherDisplay:10.37,2013-12-22 22:32:00,
2013-12-22 16:33:00,23.9,19.2,28.79,NNW,338,3.5,3.5,82,0.00,CLR,,0.00,WeatherDisplay:10.37,2013-12-22 22:33:00,
2013-12-22 16:35:00,23.9,19.2,28.79,NNW,338,2.3,2.3,82,0.00,CLR,,0.00,WeatherDisplay:10.37,2013-12-22 22:35:00,
2013-12-22 16:37:00,23.7,19.0,28.79,NNW,338,2.3,2.3,82,0.00,CLR,,0.00,WeatherDisplay:10.37,2013-12-22 22:37:00,
2013-12-22 16:38:00,23.7,19.0,28.79,NNW,338,2.3,2.3,82,0.00,CLR,,0.00,WeatherDisplay:10.37,2013-12-22 22:38:00,
2013-12-22 16:40:00,23.7,19.0,28.79,NW,315,2.3,2.3,82,0.00,CLR,,0.00,WeatherDisplay:10.37,2013-12-22 22:40:00,
2013-12-22 16:42:00,23.7,19.0,28.79,NW,315,2.3,2.3,82,0.00,CLR,,0.00,WeatherDisplay:10.37,2013-12-22 22:42:00,
2013-12-22 16:43:00,23.7,19.0,28.79,NW,315,2.3,2.3,82,0.00,CLR,,0.00,WeatherDisplay:10.37,2013-12-22 22:43:00,
2013-12-22 16:45:00,23.7,19.0,28.79,NW,315,1.2,1.4,82,0.00,CLR,,0.00,WeatherDisplay:10.37,2013-12-22 22:45:00,
2013-12-22 16:47:00,23.7,19.0,28.79,NW,315,1.4,1.4,82,0.00,CLR,,0.00,WeatherDisplay:10.37,2013-12-22 22:47:00,
2013-12-22 16:48:00,23.7,19.0,28.79,NW,315,1.2,1.2,82,0.00,CLR,,0.00,WeatherDisplay:10.37,2013-12-22 22:48:00,
2013-12-22 16:49:00,23.5,18.9,28.79,NW,315,1.2,0.0,82,0.00,CLR,,0.00,WeatherDisplay:10.37,2013-12-22 22:49:00,
2013-12-22 16:50:00,23.7,19.0,28.79,NW,315,1.6,0.0,82,0.00,CLR,,0.00,WeatherDisplay:10.37,2013-12-22 22:50:00,
2013-12-22 16:53:00,23.5,18.9,28.79,NW,315,1.2,1.2,82,0.00,CLR,,0.00,WeatherDisplay:10.37,2013-12-22 22:53:00,
2013-12-22 16:54:00,23.5,18.9,28.79,NW,315,1.2,1.2,82,0.00,CLR,,0.00,WeatherDisplay:10.37,2013-12-22 22:54:00,
2013-12-22 16:55:00,23.5,18.9,28.79,NW,315,1.2,1.4,82,0.00,CLR,,0.00,WeatherDisplay:10.37,2013-12-22 22:55:00,
2013-12-22 16:58:00,23.5,18.9,28.79,NW,315,1.2,1.2,82,0.00,CLR,,0.00,WeatherDisplay:10.37,2013-12-22 22:58:00,
2013-12-22 16:59:00,23.5,19.1,28.79,NW,315,2.2,2.2,83,0.00,CLR,,0.00,WeatherDisplay:10.37,2013-12-22 22:59:00,
2013-12-22 17:00:00,23.5,19.1,28.79,NW,315,2.4,2.4,83,0.00,CLR,,0.00,WeatherDisplay:10.37,2013-12-22 23:00:00,
2013-12-22 17:03:00,23.5,19.1,28.79,NW,315,1.4,0.0,83,0.00,CLR,,0.00,WeatherDisplay:10.37,2013-12-22 23:03:00,
2013-12-22 17:04:00,23.5,19.1,28.79,NW,315,1.2,1.2,83,0.00,CLR,,0.00,WeatherDisplay:10.37,2013-12-22 23:04:00,
2013-12-22 17:05:00,23.5,19.1,28.79,NW,315,1.2,1.2,83,0.00,CLR,,0.00,WeatherDisplay:10.37,2013-12-22 23:05:00,
2013-12-22 17:08:00,23.5,19.1,28.79,NW,315,2.3,2.3,83,0.00,CLR,,0.00,WeatherDisplay:10.37,2013-12-22 23:08:00,
2013-12-22 17:09:00,23.5,19.1,28.79,NW,315,1.4,1.4,83,0.00,CLR,,0.00,WeatherDisplay:10.37,2013-12-22 23:09:00,
2013-12-22 17:10:00,23.5,19.1,28.79,NW,315,2.3,2.3,83,0.00,CLR,,0.00,WeatherDisplay:10.37,2013-12-22 23:10:00,
2013-12-22 17:14:00,23.5,19.1,28.79,NW,315,2.3,2.3,83,0.00,CLR,,0.00,WeatherDisplay:10.37,2013-12-22 23:14:00,
2013-12-22 17:15:00,23.5,19.1,28.79,NW,315,2.3,2.3,83,0.00,CLR,,0.00,WeatherDisplay:10.37,2013-12-22 23:15:00,
2013-12-22 17:19:00,23.5,19.4,28.79,NW,315,2.3,2.3,84,0.00,CLR,,0.00,WeatherDisplay:10.37,2013-12-22 23:19:00,
2013-12-22 17:20:00,23.5,19.4,28.79,NW,315,2.3,2.3,84,0.00,CLR,,0.00,WeatherDisplay:10.37,2013-12-22 23:20:00,
2013-12-22 17:21:00,23.5,19.4,28.79,NW,315,2.3,2.3,84,0.00,CLR,,0.00,WeatherDisplay:10.37,2013-12-22 23:21:00,
2013-12-22 17:24:00,23.5,19.4,28.79,NW,315,2.3,2.3,84,0.00,CLR,,0.00,WeatherDisplay:10.37,2013-12-22 23:24:00,
2013-12-22 17:25:00,23.5,19.4,28.79,NW,315,2.3,2.3,84,0.00,CLR,,0.00,WeatherDisplay:10.37,2013-12-22 23:25:00,
2013-12-22 17:26:00,23.5,19.4,28.79,NNW,338,2.4,2.4,84,0.00,CLR,,0.00,WeatherDisplay:10.37,2013-12-22 23:26:00,
2013-12-22 17:29:00,23.5,19.7,28.79,NNW,338,3.5,3.5,85,0.00,CLR,,0.00,WeatherDisplay:10.37,2013-12-22 23:29:00,
2013-12-22 17:30:00,23.5,19.7,28.79,NNW,338,3.5,3.5,85,0.00,CLR,,0.00,WeatherDisplay:10.37,2013-12-22 23:30:00,
2013-12-22 17:31:00,23.5,19.7,28.79,NW,315,3.3,3.3,85,0.00,CLR,,0.00,WeatherDisplay:10.37,2013-12-22 23:31:00,
2013-12-22 17:35:00,23.4,19.8,28.79,NNW,338,2.4,2.4,86,0.00,CLR,,0.00,WeatherDisplay:10.37,2013-12-22 23:35:00,
2013-12-22 17:36:00,23.4,19.8,28.79,NNW,338,4.3,4.3,86,0.00,CLR,,0.00,WeatherDisplay:10.37,2013-12-22 23:36:00,
2013-12-22 17:38:00,23.4,19.8,28.79,NNW,338,3.5,3.5,86,0.00,CLR,,0.00,WeatherDisplay:10.37,2013-12-22 23:38:00,
2013-12-22 17:40:00,23.4,19.8,28.79,NNW,338,4.6,4.6,86,0.00,CLR,,0.00,WeatherDisplay:10.37,2013-12-22 23:40:00,
2013-12-22 17:41:00,23.4,20.1,28.79,NNW,338,3.6,3.6,87,0.00,CLR,,0.00,WeatherDisplay:10.37,2013-12-22 23:41:00,
2013-12-22 17:42:00,23.4,20.1,28.79,NNW,338,3.5,3.5,87,0.00,CLR,,0.00,WeatherDisplay:10.37,2013-12-22 23:42:00,
2013-12-22 17:43:00,23.4,20.1,28.79,NNW,338,4.7,4.7,87,0.00,CLR,,0.00,WeatherDisplay:10.37,2013-12-22 23:43:00,
2013-12-22 17:45:00,23.4,20.1,28.79,NNW,338,4.6,4.6,87,0.00,CLR,,0.00,WeatherDisplay:10.37,2013-12-22 23:45:00,
2013-12-22 17:46:00,23.4,20.1,28.79,NNW,338,4.6,4.6,87,0.00,CLR,,0.00,WeatherDisplay:10.37,2013-12-22 23:46:00,
2013-12-22 17:47:00,23.4,20.1,28.79,NNW,338,4.6,4.6,87,0.00,CLR,,0.00,WeatherDisplay:10.37,2013-12-22 23:47:00,
2013-12-22 17:48:00,23.2,19.9,28.79,NNW,338,3.5,3.5,87,0.00,CLR,,0.00,WeatherDisplay:10.37,2013-12-22 23:48:00,
2013-12-22 17:50:00,23.2,19.9,28.79,NW,315,4.0,4.0,87,0.00,CLR,,0.00,WeatherDisplay:10.37,2013-12-22 23:50:00,
2013-12-22 17:51:00,23.2,19.9,28.79,NW,315,3.5,3.5,87,0.00,CLR,,0.00,WeatherDisplay:10.37,2013-12-22 23:51:00,
2013-12-22 17:53:00,23.2,19.9,28.79,NNW,338,3.6,3.6,87,0.00,CLR,,0.00,WeatherDisplay:10.37,2013-12-22 23:53:00,
2013-12-22 17:54:00,23.2,20.2,28.79,NW,315,4.6,4.6,88,0.00,CLR,,0.00,WeatherDisplay:10.37,2013-12-22 23:54:00,
2013-12-22 17:56:00,23.2,20.2,28.79,NNW,338,3.5,3.5,88,0.00,CLR,,0.00,WeatherDisplay:10.37,2013-12-22 23:56:00,
2013-12-22 17:58:00,23.2,20.2,28.79,NW,315,3.5,3.5,88,0.00,CLR,,0.00,WeatherDisplay:10.37,2013-12-22 23:58:00,
2013-12-22 17:59:00,23.2,20.2,28.79,North,0,3.3,3.3,88,0.00,CLR,,0.00,WeatherDisplay:10.37,2013-12-22 23:59:00,
2013-12-22 18:01:00,23.2,20.2,28.79,NNW,338,3.5,3.5,88,0.00,CLR,,0.00,WeatherDisplay:10.37,2013-12-23 00:01:00,
2013-12-22 18:02:00,23.2,20.2,28.79,North,0,2.6,2.6,88,0.00,CLR,,0.00,WeatherDisplay:10.37,2013-12-23 00:02:00,
2013-12-22 18:03:00,23.2,20.2,28.79,NW,315,3.5,3.5,88,0.00,CLR,,0.00,WeatherDisplay:10.37,2013-12-23 00:03:00,
2013-12-22 18:05:00,23.2,20.2,28.79,NNW,338,3.8,3.8,88,0.00,CLR,,0.00,WeatherDisplay:10.37,2013-12-23 00:05:00,
2013-12-22 18:06:00,23.2,20.2,28.79,NNW,338,3.5,3.5,88,0.00,CLR,,0.00,WeatherDisplay:10.37,2013-12-23 00:06:00,
2013-12-22 18:07:00,23.2,20.2,28.79,NW,315,3.6,3.6,88,0.00,CLR,,0.00,WeatherDisplay:10.37,2013-12-23 00:07:00,
2013-12-22 18:08:00,23.2,20.2,28.79,NNW,338,3.5,3.5,88,0.00,CLR,,0.00,WeatherDisplay:10.37,2013-12-23 00:08:00,
2013-12-22 18:09:00,23.2,20.2,28.79,NW,315,3.5,3.5,88,0.00,CLR,,0.00,WeatherDisplay:10.37,2013-12-23 00:09:00,
2013-12-22 18:10:00,23.2,20.4,28.79,NNW,338,3.5,3.5,89,0.00,CLR,,0.00,WeatherDisplay:10.37,2013-12-23 00:10:00,
2013-12-22 18:11:00,23.2,20.4,28.79,NNW,338,3.5,3.5,89,0.00,CLR,,0.00,WeatherDisplay:10.37,2013-12-23 00:11:00,
2013-12-22 18:12:00,23.2,20.4,28.79,North,0,5.8,5.8,89,0.00,CLR,,0.00,WeatherDisplay:10.37,2013-12-23 00:12:00,
2013-12-22 18:14:00,23.2,20.4,28.79,North,0,4.6,4.6,89,0.00,CLR,,0.00,WeatherDisplay:10.37,2013-12-23 00:14:00,
2013-12-22 18:15:00,23.2,20.4,28.79,North,0,6.2,6.2,89,0.00,CLR,,0.00,WeatherDisplay:10.37,2013-12-23 00:15:00,
2013-12-22 18:16:00,23.2,20.4,28.79,NW,315,6.2,6.2,89,0.00,CLR,,0.00,WeatherDisplay:10.37,2013-12-23 00:16:00,
2013-12-22 18:18:00,23.2,20.4,28.79,NW,315,4.6,4.9,89,0.00,CLR,,0.00,WeatherDisplay:10.37,2013-12-23 00:18:00,
2013-12-22 18:19:00,23.2,20.7,28.79,NW,315,4.6,4.6,90,0.00,CLR,,0.00,WeatherDisplay:10.37,2013-12-23 00:19:00,
2013-12-22 18:21:00,23.2,20.7,28.79,North,0,5.8,5.8,90,0.00,CLR,,0.00,WeatherDisplay:10.37,2013-12-23 00:21:00,
2013-12-22 18:22:00,23.2,20.7,28.79,NNW,338,5.8,5.8,90,0.00,CLR,,0.00,WeatherDisplay:10.37,2013-12-23 00:22:00,
2013-12-22 18:23:00,23.2,20.7,28.79,North,0,8.1,8.1,90,0.00,CLR,,0.00,WeatherDisplay:10.37,2013-12-23 00:23:00,
2013-12-22 18:25:00,23.0,20.5,28.79,NNW,338,8.1,8.1,90,0.00,CLR,,0.00,WeatherDisplay:10.37,2013-12-23 00:25:00,
2013-12-22 18:26:00,23.0,20.5,28.79,NW,315,4.6,4.6,90,0.00,CLR,,0.00,WeatherDisplay:10.37,2013-12-23 00:26:00,
2013-12-22 18:27:00,23.0,20.5,28.79,NW,315,4.6,4.6,90,0.00,CLR,,0.00,WeatherDisplay:10.37,2013-12-23 00:27:00,
2013-12-22 18:28:00,23.0,20.5,28.79,NNE,22,4.6,4.6,90,0.00,CLR,,0.00,WeatherDisplay:10.37,2013-12-23 00:28:00,
2013-12-22 18:30:00,22.8,20.1,28.79,NNW,338,3.5,3.5,89,0.00,CLR,,0.00,WeatherDisplay:10.37,2013-12-23 00:30:00,
2013-12-22 18:31:00,22.8,20.1,28.79,North,0,3.5,3.5,89,0.00,CLR,,0.00,WeatherDisplay:10.37,2013-12-23 00:31:00,
2013-12-22 18:32:00,22.8,20.1,28.79,North,0,2.4,2.6,89,0.00,CLR,,0.00,WeatherDisplay:10.37,2013-12-23 00:32:00,
2013-12-22 18:34:00,22.8,20.1,28.79,NW,315,3.8,3.8,89,0.00,CLR,,0.00,WeatherDisplay:10.37,2013-12-23 00:34:00,
2013-12-22 18:35:00,22.6,19.9,28.79,NNW,338,3.5,3.5,89,0.00,CLR,,0.00,WeatherDisplay:10.37,2013-12-23 00:35:00,
2013-12-22 18:36:00,22.6,19.9,28.79,NNW,338,3.5,3.5,89,0.00,CLR,,0.00,WeatherDisplay:10.37,2013-12-23 00:36:00,
2013-12-22 18:37:00,22.6,19.6,28.79,NNW,338,3.5,3.5,88,0.00,CLR,,0.00,WeatherDisplay:10.37,2013-12-23 00:37:00,
2013-12-22 18:39:00,22.5,19.4,28.79,North,0,6.4,6.4,88,0.00,CLR,,0.00,WeatherDisplay:10.37,2013-12-23 00:39:00,
2013-12-22 18:40:00,22.5,19.4,28.79,North,0,6.9,6.9,88,0.00,CLR,,0.00,WeatherDisplay:10.37,2013-12-23 00:40:00,
2013-12-22 18:42:00,22.5,19.4,28.79,NNW,338,3.5,3.5,88,0.00,CLR,,0.00,WeatherDisplay:10.37,2013-12-23 00:42:00,
2013-12-22 18:43:00,22.5,19.4,28.79,NNW,338,3.8,3.8,88,0.00,CLR,,0.00,WeatherDisplay:10.37,2013-12-23 00:43:00,
2013-12-22 18:45:00,22.3,19.3,28.79,NNW,338,3.5,3.5,88,0.00,CLR,,0.00,WeatherDisplay:10.37,2013-12-23 00:45:00,
2013-12-22 18:46:00,22.3,19.3,28.79,NNW,338,4.6,4.6,88,0.00,CLR,,0.00,WeatherDisplay:10.37,2013-12-23 00:46:00,
2013-12-22 18:47:00,22.3,19.3,28.79,NW,315,4.6,4.6,88,0.00,CLR,,0.00,WeatherDisplay:10.37,2013-12-23 00:47:00,
2013-12-22 18:48:00,22.3,19.3,28.79,NW,315,4.6,4.6,88,0.00,CLR,,0.00,WeatherDisplay:10.37,2013-12-23 00:48:00,
2013-12-22 18:50:00,22.1,19.1,28.79,North,0,3.5,3.5,88,0.00,CLR,,0.00,WeatherDisplay:10.37,2013-12-23 00:50:00,
2013-12-22 18:52:00,22.1,19.1,28.79,NNW,338,2.4,2.4,88,0.00,CLR,,0.00,WeatherDisplay:10.37,2013-12-23 00:52:00,
2013-12-22 18:53:00,22.1,18.8,28.79,NNW,338,2.9,2.9,87,0.00,CLR,,0.00,WeatherDisplay:10.37,2013-12-23 00:53:00,
2013-12-22 18:55:00,22.1,19.1,28.82,North,0,3.5,3.5,88,0.00,CLR,,0.00,WeatherDisplay:10.37,2013-12-23 00:55:00,
2013-12-22 18:57:00,21.9,18.9,28.82,North,0,3.5,3.5,88,0.00,CLR,,0.00,WeatherDisplay:10.37,2013-12-23 00:57:00,
2013-12-22 18:58:00,21.9,18.9,28.82,North,0,3.5,3.5,88,0.00,CLR,,0.00,WeatherDisplay:10.37,2013-12-23 00:58:00,
2013-12-22 19:00:00,21.9,18.9,28.82,NW,315,4.6,4.6,88,0.00,CLR,,0.00,WeatherDisplay:10.37,2013-12-23 01:00:00,
2013-12-22 19:02:00,21.9,18.9,28.82,NNW,338,2.3,2.3,88,0.00,CLR,,0.00,WeatherDisplay:10.37,2013-12-23 01:02:00,
2013-12-22 19:03:00,21.9,18.9,28.82,North,0,2.3,2.3,88,0.00,CLR,,0.00,WeatherDisplay:10.37,2013-12-23 01:03:00,
2013-12-22 19:04:00,21.9,18.9,28.82,North,0,2.3,2.3,88,0.00,CLR,,0.00,WeatherDisplay:10.37,2013-12-23 01:04:00,
2013-12-22 19:05:00,21.9,18.9,28.82,NNW,338,2.4,2.4,88,0.00,CLR,,0.00,WeatherDisplay:10.37,2013-12-23 01:05:00,
2013-12-22 19:07:00,21.9,18.9,28.82,NNW,338,3.5,3.5,88,0.00,CLR,,0.00,WeatherDisplay:10.37,2013-12-23 01:07:00,
2013-12-22 19:08:00,21.9,18.9,28.82,NNW,338,3.5,3.5,88,0.00,CLR,,0.00,WeatherDisplay:10.37,2013-12-23 01:08:00,
2013-12-22 19:10:00,21.9,18.9,28.85,NNW,338,2.3,2.3,88,0.00,CLR,,0.00,WeatherDisplay:10.37,2013-12-23 01:10:00,
2013-12-22 19:12:00,21.7,18.7,28.85,North,0,2.6,2.6,88,0.00,CLR,,0.00,WeatherDisplay:10.37,2013-12-23 01:12:00,
2013-12-22 19:13:00,21.7,18.7,28.85,NNW,338,2.3,2.3,88,0.00,CLR,,0.00,WeatherDisplay:10.37,2013-12-23 01:13:00,
2013-12-22 19:14:00,21.7,18.7,28.85,North,0,2.3,2.3,88,0.00,CLR,,0.00,WeatherDisplay:10.37,2013-12-23 01:14:00,
2013-12-22 19:15:00,21.7,18.7,28.85,NW,315,2.6,2.6,88,0.00,CLR,,0.00,WeatherDisplay:10.37,2013-12-23 01:15:00,
2013-12-22 19:16:00,21.7,18.7,28.85,NNW,338,2.3,2.3,88,0.00,CLR,,0.00,WeatherDisplay:10.37,2013-12-23 01:16:00,
2013-12-22 19:18:00,21.7,18.7,28.85,NNW,338,2.3,2.3,88,0.00,CLR,,0.00,WeatherDisplay:10.37,2013-12-23 01:18:00,
2013-12-22 19:19:00,21.7,18.7,28.85,NNW,338,2.3,2.3,88,0.00,CLR,,0.00,WeatherDisplay:10.37,2013-12-23 01:19:00,
2013-12-22 19:20:00,21.7,18.7,28.85,NNW,338,1.2,0.0,88,0.00,CLR,,0.00,WeatherDisplay:10.37,2013-12-23 01:20:00,
2013-12-22 19:21:00,21.7,18.7,28.85,NNW,338,0.0,0.0,88,0.00,CLR,,0.00,WeatherDisplay:10.37,2013-12-23 01:21:00,
2013-12-22 19:23:00,21.6,18.6,28.85,NNW,338,0.0,0.0,88,0.00,CLR,,0.00,WeatherDisplay:10.37,2013-12-23 01:23:00,
2013-12-22 19:24:00,21.6,18.6,28.85,NNW,338,0.0,0.0,88,0.00,CLR,,0.00,WeatherDisplay:10.37,2013-12-23 01:24:00,
2013-12-22 19:25:00,21.6,18.3,28.85,NNW,338,1.6,1.6,87,0.00,CLR,,0.00,WeatherDisplay:10.37,2013-12-23 01:25:00,
2013-12-22 19:26:00,21.6,18.3,28.85,NNW,338,1.6,1.6,87,0.00,CLR,,0.00,WeatherDisplay:10.37,2013-12-23 01:26:00,
2013-12-22 19:28:00,21.6,18.3,28.85,NNW,338,2.3,2.3,87,0.00,CLR,,0.00,WeatherDisplay:10.37,2013-12-23 01:28:00,
2013-12-22 19:29:00,21.4,18.1,28.85,NNW,338,1.6,1.6,87,0.00,CLR,,0.00,WeatherDisplay:10.37,2013-12-23 01:29:00,
2013-12-22 19:30:00,21.4,18.1,28.85,NNW,338,1.4,1.4,87,0.00,CLR,,0.00,WeatherDisplay:10.37,2013-12-23 01:30:00,
2013-12-22 19:31:00,21.4,18.1,28.85,NNW,338,1.2,1.2,87,0.00,CLR,,0.00,WeatherDisplay:10.37,2013-12-23 01:31:00,
2013-12-22 19:34:00,21.4,18.1,28.85,NNW,338,2.3,2.3,87,0.00,CLR,,0.00,WeatherDisplay:10.37,2013-12-23 01:34:00,
2013-12-22 19:35:00,21.4,18.1,28.85,NNW,338,1.2,1.2,87,0.00,CLR,,0.00,WeatherDisplay:10.37,2013-12-23 01:35:00,
2013-12-22 19:36:00,21.4,18.1,28.85,NNW,338,1.2,1.2,87,0.00,CLR,,0.00,WeatherDisplay:10.37,2013-12-23 01:36:00,
2013-12-22 19:39:00,21.4,18.1,28.85,NNW,338,1.6,1.6,87,0.00,CLR,,0.00,WeatherDisplay:10.37,2013-12-23 01:39:00,
2013-12-22 19:40:00,21.2,18.2,28.85,NNW,338,2.2,2.2,88,0.00,CLR,,0.00,WeatherDisplay:10.37,2013-12-23 01:40:00,
2013-12-22 19:41:00,21.2,18.2,28.85,NNW,338,2.3,2.3,88,0.00,CLR,,0.00,WeatherDisplay:10.37,2013-12-23 01:41:00,
2013-12-22 19:42:00,21.2,18.2,28.85,NW,315,2.3,2.3,88,0.00,CLR,,0.00,WeatherDisplay:10.37,2013-12-23 01:42:00,
2013-12-22 19:44:00,21.2,18.2,28.85,NW,315,2.0,2.0,88,0.00,CLR,,0.00,WeatherDisplay:10.37,2013-12-23 01:44:00,
2013-12-22 19:45:00,21.2,18.2,28.85,WNW,292,2.3,2.3,88,0.00,CLR,,0.00,WeatherDisplay:10.37,2013-12-23 01:45:00,
2013-12-22 19:46:00,21.2,18.2,28.85,WNW,292,2.4,2.4,88,0.00,CLR,,0.00,WeatherDisplay:10.37,2013-12-23 01:46:00,
2013-12-22 19:47:00,21.2,18.2,28.85,WNW,292,2.3,2.3,88,0.00,CLR,,0.00,WeatherDisplay:10.37,2013-12-23 01:47:00,
2013-12-22 19:49:00,21.2,18.2,28.85,WNW,292,1.2,1.4,88,0.00,CLR,,0.00,WeatherDisplay:10.37,2013-12-23 01:49:00,
2013-12-22 19:51:00,21.2,18.2,28.85,WNW,292,2.3,2.3,88,0.00,CLR,,0.00,WeatherDisplay:10.37,2013-12-23 01:51:00,
2013-12-22 19:52:00,21.2,18.2,28.85,WNW,292,1.4,1.4,88,0.00,CLR,,0.00,WeatherDisplay:10.37,2013-12-23 01:52:00,
2013-12-22 19:54:00,21.2,18.2,28.85,WNW,292,1.2,0.0,88,0.00,CLR,,0.00,WeatherDisplay:10.37,2013-12-23 01:54:00,
2013-12-22 19:56:00,21.2,18.2,28.85,WNW,292,0.0,0.0,88,0.00,CLR,,0.00,WeatherDisplay:10.37,2013-12-23 01:56:00,
2013-12-22 19:57:00,21.2,18.2,28.85,WNW,292,0.0,0.0,88,0.00,CLR,,0.00,WeatherDisplay:10.37,2013-12-23 01:57:00,
2013-12-22 19:59:00,21.0,18.0,28.85,WNW,292,0.0,0.0,88,0.00,CLR,,0.00,WeatherDisplay:10.37,2013-12-23 01:59:00,
2013-12-22 20:01:00,21.0,18.0,28.85,WNW,292,0.0,0.0,88,0.00,CLR,,0.00,WeatherDisplay:10.37,2013-12-23 02:01:00,
2013-12-22 20:02:00,21.0,18.0,28.85,WNW,292,0.0,0.0,88,0.00,CLR,,0.00,WeatherDisplay:10.37,2013-12-23 02:02:00,
2013-12-22 20:03:00,21.0,18.0,28.85,WNW,292,0.0,0.0,88,0.00,CLR,,0.00,WeatherDisplay:10.37,2013-12-23 02:03:00,
2013-12-22 20:05:00,20.8,17.8,28.85,WNW,292,0.0,0.0,88,0.00,CLR,,0.00,WeatherDisplay:10.37,2013-12-23 02:05:00,
2013-12-22 20:06:00,20.8,17.8,28.85,WNW,292,0.0,0.0,88,0.00,CLR,,0.00,WeatherDisplay:10.37,2013-12-23 02:06:00,
2013-12-22 20:07:00,20.8,17.8,28.85,WNW,292,0.0,0.0,88,0.00,CLR,,0.00,WeatherDisplay:10.37,2013-12-23 02:07:00,
2013-12-22 20:08:00,20.8,17.8,28.85,WNW,292,0.0,0.0,88,0.00,CLR,,0.00,WeatherDisplay:10.37,2013-12-23 02:08:00,
2013-12-22 20:11:00,20.7,17.7,28.85,WNW,292,0.0,0.0,88,0.00,CLR,,0.00,WeatherDisplay:10.37,2013-12-23 02:11:00,
2013-12-22 20:12:00,20.7,17.7,28.85,WNW,292,0.0,0.0,88,0.00,CLR,,0.00,WeatherDisplay:10.37,2013-12-23 02:12:00,
2013-12-22 20:13:00,20.5,17.5,28.85,WNW,292,0.0,0.0,88,0.00,CLR,,0.00,WeatherDisplay:10.37,2013-12-23 02:13:00,
2013-12-22 20:16:00,20.5,17.2,28.85,WNW,292,0.0,0.0,87,0.00,CLR,,0.00,WeatherDisplay:10.37,2013-12-23 02:16:00,
2013-12-22 20:17:00,20.3,17.0,28.85,WNW,292,0.0,0.0,87,0.00,CLR,,0.00,WeatherDisplay:10.37,2013-12-23 02:17:00,
2013-12-22 20:18:00,20.3,17.0,28.85,WNW,292,0.0,0.0,87,0.00,CLR,,0.00,WeatherDisplay:10.37,2013-12-23 02:18:00,
2013-12-22 20:19:00,20.3,17.0,28.85,WNW,292,0.0,0.0,87,0.00,CLR,,0.00,WeatherDisplay:10.37,2013-12-23 02:19:00,
2013-12-22 20:21:00,20.3,17.0,28.85,WNW,292,0.0,0.0,87,0.00,CLR,,0.00,WeatherDisplay:10.37,2013-12-23 02:21:00,
2013-12-22 20:22:00,20.1,16.9,28.85,WNW,292,0.0,0.0,87,0.00,CLR,,0.00,WeatherDisplay:10.37,2013-12-23 02:22:00,
2013-12-22 20:23:00,20.1,16.9,28.85,WNW,292,0.0,0.0,87,0.00,CLR,,0.00,WeatherDisplay:10.37,2013-12-23 02:23:00,
2013-12-22 20:24:00,20.1,16.9,28.85,WNW,292,0.0,0.0,87,0.00,CLR,,0.00,WeatherDisplay:10.37,2013-12-23 02:24:00,
2013-12-22 20:26:00,20.1,17.1,28.85,WNW,292,0.0,0.0,88,0.00,CLR,,0.00,WeatherDisplay:10.37,2013-12-23 02:26:00,
2013-12-22 20:27:00,20.1,17.1,28.85,WNW,292,0.0,0.0,88,0.00,CLR,,0.00,WeatherDisplay:10.37,2013-12-23 02:27:00,
2013-12-22 20:29:00,19.9,17.0,28.85,WNW,292,0.0,0.0,88,0.00,CLR,,0.00,WeatherDisplay:10.37,2013-12-23 02:29:00,
2013-12-22 20:31:00,19.9,17.0,28.85,WNW,292,0.0,0.0,88,0.00,CLR,,0.00,WeatherDisplay:10.37,2013-12-23 02:31:00,
2013-12-22 20:33:00,19.8,16.8,28.85,WNW,292,0.0,0.0,88,0.00,CLR,,0.00,WeatherDisplay:10.37,2013-12-23 02:33:00,
2013-12-22 20:34:00,19.8,16.8,28.85,WNW,292,0.0,0.0,88,0.00,CLR,,0.00,WeatherDisplay:10.37,2013-12-23 02:34:00,
2013-12-22 20:36:00,19.8,16.8,28.85,WNW,292,0.0,0.0,88,0.00,CLR,,0.00,WeatherDisplay:10.37,2013-12-23 02:36:00,
2013-12-22 20:38:00,19.6,16.6,28.85,WNW,292,0.0,0.0,88,0.00,CLR,,0.00,WeatherDisplay:10.37,2013-12-23 02:38:00,
2013-12-22 20:39:00,19.6,16.6,28.85,WNW,292,0.0,0.0,88,0.00,CLR,,0.00,WeatherDisplay:10.37,2013-12-23 02:39:00,
2013-12-22 20:40:00,19.6,16.6,28.82,WNW,292,0.0,0.0,88,0.00,CLR,,0.00,WeatherDisplay:10.37,2013-12-23 02:40:00,
2013-12-22 20:41:00,19.4,16.4,28.82,WNW,292,0.0,0.0,88,0.00,CLR,,0.00,WeatherDisplay:10.37,2013-12-23 02:41:00,
2013-12-22 20:43:00,19.4,16.4,28.82,WNW,292,0.0,0.0,88,0.00,CLR,,0.00,WeatherDisplay:10.37,2013-12-23 02:43:00,
2013-12-22 20:44:00,19.4,16.4,28.82,WNW,292,0.0,0.0,88,0.00,CLR,,0.00,WeatherDisplay:10.37,2013-12-23 02:44:00,
2013-12-22 20:45:00,19.2,16.2,28.82,WNW,292,0.0,0.0,88,0.00,CLR,,0.00,WeatherDisplay:10.37,2013-12-23 02:45:00,
2013-12-22 20:47:00,19.2,16.2,28.82,WNW,292,0.0,0.0,88,0.00,CLR,,0.00,WeatherDisplay:10.37,2013-12-23 02:47:00,
2013-12-22 20:48:00,19.0,16.1,28.82,WNW,292,0.0,0.0,88,0.00,CLR,,0.00,WeatherDisplay:10.37,2013-12-23 02:48:00,
2013-12-22 20:49:00,19.0,16.1,28.82,WNW,292,0.0,0.0,88,0.00,CLR,,0.00,WeatherDisplay:10.37,2013-12-23 02:49:00,
2013-12-22 20:50:00,19.0,16.1,28.82,WNW,292,0.0,0.0,88,0.00,CLR,,0.00,WeatherDisplay:10.37,2013-12-23 02:50:00,
2013-12-22 20:51:00,19.0,16.1,28.82,WNW,292,0.0,0.0,88,0.00,CLR,,0.00,WeatherDisplay:10.37,2013-12-23 02:51:00,
2013-12-22 20:52:00,19.0,16.1,28.82,WNW,292,0.0,0.0,88,0.00,CLR,,0.00,WeatherDisplay:10.37,2013-12-23 02:52:00,
2013-12-22 20:54:00,19.0,16.1,28.82,WNW,292,0.0,0.0,88,0.00,CLR,,0.00,WeatherDisplay:10.37,2013-12-23 02:54:00,
2013-12-22 20:55:00,19.0,16.1,28.85,WNW,292,0.0,0.0,88,0.00,CLR,,0.00,WeatherDisplay:10.37,2013-12-23 02:55:00,
2013-12-22 20:56:00,19.0,16.1,28.85,WNW,292,0.0,0.0,88,0.00,CLR,,0.00,WeatherDisplay:10.37,2013-12-23 02:56:00,
2013-12-22 20:57:00,19.0,16.1,28.85,WNW,292,0.0,0.0,88,0.00,CLR,,0.00,WeatherDisplay:10.37,2013-12-23 02:57:00,
2013-12-22 20:59:00,19.0,16.1,28.85,WNW,292,0.0,0.0,88,0.00,CLR,,0.00,WeatherDisplay:10.37,2013-12-23 02:59:00,
2013-12-22 21:00:00,19.0,16.3,28.85,WNW,292,0.0,0.0,89,0.00,CLR,,0.00,WeatherDisplay:10.37,2013-12-23 03:00:00,
2013-12-22 21:01:00,19.0,16.3,28.85,WNW,292,0.0,0.0,89,0.00,CLR,,0.00,WeatherDisplay:10.37,2013-12-23 03:01:00,
2013-12-22 21:02:00,19.2,16.5,28.85,WNW,292,0.0,0.0,89,0.00,CLR,,0.00,WeatherDisplay:10.37,2013-12-23 03:02:00,
2013-12-22 21:04:00,19.2,16.5,28.85,WNW,292,0.0,0.0,89,0.00,CLR,,0.00,WeatherDisplay:10.37,2013-12-23 03:04:00,
2013-12-22 21:05:00,19.2,16.5,28.85,WNW,292,0.0,0.0,89,0.00,CLR,,0.00,WeatherDisplay:10.37,2013-12-23 03:05:00,
2013-12-22 21:06:00,19.2,16.5,28.85,WNW,292,0.0,0.0,89,0.00,CLR,,0.00,WeatherDisplay:10.37,2013-12-23 03:06:00,
2013-12-22 21:07:00,19.2,16.5,28.85,WNW,292,0.0,0.0,89,0.00,CLR,,0.00,WeatherDisplay:10.37,2013-12-23 03:07:00,
2013-12-22 21:09:00,19.2,16.5,28.85,NNE,22,1.2,0.0,89,0.00,CLR,,0.00,WeatherDisplay:10.37,2013-12-23 03:09:00,
2013-12-22 21:10:00,19.2,16.5,28.85,NNE,22,0.0,0.0,89,0.00,CLR,,0.00,WeatherDisplay:10.37,2013-12-23 03:10:00,
2013-12-22 21:11:00,19.2,16.5,28.85,NNE,22,0.0,0.0,89,0.00,CLR,,0.00,WeatherDisplay:10.37,2013-12-23 03:11:00,
2013-12-22 21:12:00,19.2,16.5,28.85,NNE,22,0.0,0.0,89,0.00,CLR,,0.00,WeatherDisplay:10.37,2013-12-23 03:12:00,
2013-12-22 21:14:00,19.2,16.5,28.85,NNE,22,1.4,1.4,89,0.00,CLR,,0.00,WeatherDisplay:10.37,2013-12-23 03:14:00,
2013-12-22 21:15:00,19.2,16.5,28.85,NNE,22,1.2,1.2,89,0.00,CLR,,0.00,WeatherDisplay:10.37,2013-12-23 03:15:00,
2013-12-22 21:17:00,19.2,16.5,28.85,NNE,22,2.3,0.0,89,0.00,CLR,,0.00,WeatherDisplay:10.37,2013-12-23 03:17:00,
2013-12-22 21:20:00,19.4,16.7,28.85,WNW,292,1.2,1.2,89,0.00,CLR,,0.00,WeatherDisplay:10.37,2013-12-23 03:20:00,
2013-12-22 21:22:00,19.4,16.7,28.85,WNW,292,1.2,0.0,89,0.00,CLR,,0.00,WeatherDisplay:10.37,2013-12-23 03:22:00,
2013-12-22 21:25:00,19.4,16.7,28.85,WNW,292,0.0,0.0,89,0.00,CLR,,0.00,WeatherDisplay:10.37,2013-12-23 03:25:00,
2013-12-22 21:26:00,19.6,16.9,28.85,WNW,292,0.0,0.0,89,0.00,CLR,,0.00,WeatherDisplay:10.37,2013-12-23 03:26:00,
2013-12-22 21:27:00,19.6,16.9,28.85,WNW,292,0.0,0.0,89,0.00,CLR,,0.00,WeatherDisplay:10.37,2013-12-23 03:27:00,
2013-12-22 21:28:00,19.6,16.9,28.85,WNW,292,0.0,0.0,89,0.00,CLR,,0.00,WeatherDisplay:10.37,2013-12-23 03:28:00,
2013-12-22 21:30:00,19.6,16.9,28.85,WNW,292,0.0,0.0,89,0.00,CLR,,0.00,WeatherDisplay:10.37,2013-12-23 03:30:00,
2013-12-22 21:31:00,19.6,16.9,28.85,WNW,292,0.0,0.0,89,0.00,CLR,,0.00,WeatherDisplay:10.37,2013-12-23 03:31:00,
2013-12-22 21:32:00,19.8,17.0,28.85,WNW,292,0.0,0.0,89,0.00,CLR,,0.00,WeatherDisplay:10.37,2013-12-23 03:32:00,
2013-12-22 21:33:00,19.8,17.0,28.85,WNW,292,0.0,0.0,89,0.00,CLR,,0.00,WeatherDisplay:10.37,2013-12-23 03:33:00,
2013-12-22 21:35:00,19.8,17.0,28.85,WNW,292,0.0,0.0,89,0.00,CLR,,0.00,WeatherDisplay:10.37,2013-12-23 03:35:00,
2013-12-22 21:36:00,19.8,17.0,28.85,WNW,292,0.0,0.0,89,0.00,CLR,,0.00,WeatherDisplay:10.37,2013-12-23 03:36:00,
2013-12-22 21:37:00,19.8,17.0,28.85,WNW,292,0.0,0.0,89,0.00,CLR,,0.00,WeatherDisplay:10.37,2013-12-23 03:37:00,
2013-12-22 21:39:00,19.8,17.0,28.85,WNW,292,0.0,0.0,89,0.00,CLR,,0.00,WeatherDisplay:10.37,2013-12-23 03:39:00,
2013-12-22 21:40:00,19.8,17.0,28.88,WNW,292,0.0,0.0,89,0.00,CLR,,0.00,WeatherDisplay:10.37,2013-12-23 03:40:00,
2013-12-22 21:41:00,19.8,17.0,28.88,WNW,292,0.0,0.0,89,0.00,CLR,,0.00,WeatherDisplay:10.37,2013-12-23 03:41:00,
2013-12-22 21:42:00,19.8,17.0,28.88,WNW,292,0.0,0.0,89,0.00,CLR,,0.00,WeatherDisplay:10.37,2013-12-23 03:42:00,
2013-12-22 21:44:00,19.8,17.0,28.88,NW,315,0.0,0.0,89,0.00,CLR,,0.00,WeatherDisplay:10.37,2013-12-23 03:44:00,
2013-12-22 21:45:00,19.8,17.0,28.88,NW,315,0.0,0.0,89,0.00,CLR,,0.00,WeatherDisplay:10.37,2013-12-23 03:45:00,
2013-12-22 21:46:00,19.9,17.2,28.88,NW,315,0.0,0.0,89,0.00,CLR,,0.00,WeatherDisplay:10.37,2013-12-23 03:46:00,
2013-12-22 21:47:00,19.9,17.2,28.88,NW,315,0.0,0.0,89,0.00,CLR,,0.00,WeatherDisplay:10.37,2013-12-23 03:47:00,
2013-12-22 21:48:00,19.9,17.2,28.88,NW,315,0.0,0.0,89,0.00,CLR,,0.00,WeatherDisplay:10.37,2013-12-23 03:48:00,
2013-12-22 21:49:00,19.9,17.5,28.88,NW,315,0.0,0.0,90,0.00,CLR,,0.00,WeatherDisplay:10.37,2013-12-23 03:49:00,
2013-12-22 21:50:00,19.9,17.5,28.88,NW,315,0.0,0.0,90,0.00,CLR,,0.00,WeatherDisplay:10.37,2013-12-23 03:50:00,
2013-12-22 21:51:00,19.9,17.5,28.88,NW,315,0.0,0.0,90,0.00,CLR,,0.00,WeatherDisplay:10.37,2013-12-23 03:51:00,
2013-12-22 21:53:00,20.1,17.7,28.88,NW,315,1.4,0.0,90,0.00,CLR,,0.00,WeatherDisplay:10.37,2013-12-23 03:53:00,
2013-12-22 21:55:00,20.1,17.9,28.85,NW,315,1.6,1.6,91,0.00,CLR,,0.00,WeatherDisplay:10.37,2013-12-23 03:55:00,
2013-12-22 21:56:00,20.3,18.1,28.85,NW,315,1.2,1.4,91,0.00,CLR,,0.00,WeatherDisplay:10.37,2013-12-23 03:56:00,
2013-12-22 21:57:00,20.3,18.1,28.85,NW,315,1.2,0.0,91,0.00,CLR,,0.00,WeatherDisplay:10.37,2013-12-23 03:57:00,
2013-12-22 21:58:00,20.3,18.1,28.85,NW,315,0.0,0.0,91,0.00,CLR,,0.00,WeatherDisplay:10.37,2013-12-23 03:58:00,
2013-12-22 21:59:00,20.3,18.1,28.85,NW,315,0.0,0.0,91,0.00,CLR,,0.00,WeatherDisplay:10.37,2013-12-23 03:59:00,
2013-12-22 22:00:00,20.3,18.1,28.85,NW,315,0.0,1.0,91,0.00,CLR,,0.00,WeatherDisplay:10.37,2013-12-23 04:00:00,
2013-12-22 22:01:00,20.3,18.1,28.85,NW,315,1.6,0.0,91,0.00,CLR,,0.00,WeatherDisplay:10.37,2013-12-23 04:01:00,
2013-12-22 22:02:00,20.3,18.1,28.85,West,270,2.3,2.3,91,0.00,CLR,,0.00,WeatherDisplay:10.37,2013-12-23 04:02:00,
2013-12-22 22:03:00,20.5,18.3,28.85,West,270,2.3,2.3,91,0.00,CLR,,0.00,WeatherDisplay:10.37,2013-12-23 04:03:00,
2013-12-22 22:04:00,20.5,18.3,28.85,WNW,292,2.3,2.3,91,0.00,CLR,,0.00,WeatherDisplay:10.37,2013-12-23 04:04:00,
2013-12-22 22:05:00,20.5,18.3,28.85,WNW,292,2.3,2.3,91,0.00,CLR,,0.00,WeatherDisplay:10.37,2013-12-23 04:05:00,
2013-12-22 22:06:00,20.7,18.4,28.85,WNW,292,2.3,2.3,91,0.00,CLR,,0.00,WeatherDisplay:10.37,2013-12-23 04:06:00,
2013-12-22 22:08:00,20.7,18.4,28.85,WNW,292,2.3,2.3,91,0.00,CLR,,0.00,WeatherDisplay:10.37,2013-12-23 04:08:00,
2013-12-22 22:09:00,20.7,18.4,28.88,WNW,292,0.0,0.0,91,0.00,CLR,,0.00,WeatherDisplay:10.37,2013-12-23 04:09:00,
2013-12-22 22:10:00,20.7,18.4,28.88,WNW,292,0.9,0.0,91,0.00,CLR,,0.00,WeatherDisplay:10.37,2013-12-23 04:10:00,
2013-12-22 22:11:00,20.8,18.6,28.88,WNW,292,1.2,1.2,91,0.00,CLR,,0.00,WeatherDisplay:10.37,2013-12-23 04:11:00,
2013-12-22 22:13:00,20.8,18.6,28.88,WNW,292,1.2,0.0,91,0.00,CLR,,0.00,WeatherDisplay:10.37,2013-12-23 04:13:00,
2013-12-22 22:14:00,20.8,18.6,28.88,WNW,292,1.2,0.0,91,0.00,CLR,,0.00,WeatherDisplay:10.37,2013-12-23 04:14:00,
2013-12-22 22:15:00,20.8,18.6,28.88,WNW,292,1.2,0.0,91,0.00,CLR,,0.00,WeatherDisplay:10.37,2013-12-23 04:15:00,
2013-12-22 22:16:00,20.8,18.6,28.88,WNW,292,1.6,1.6,91,0.00,CLR,,0.00,WeatherDisplay:10.37,2013-12-23 04:16:00,
2013-12-22 22:18:00,20.8,18.6,28.88,WNW,292,2.3,2.3,91,0.00,CLR,,0.00,WeatherDisplay:10.37,2013-12-23 04:18:00,
2013-12-22 22:19:00,20.8,18.6,28.88,WNW,292,2.3,2.3,91,0.00,CLR,,0.00,WeatherDisplay:10.37,2013-12-23 04:19:00,
2013-12-22 22:20:00,20.8,18.6,28.88,WNW,292,2.0,2.0,91,0.00,CLR,,0.00,WeatherDisplay:10.37,2013-12-23 04:20:00,
2013-12-22 22:21:00,20.8,18.6,28.88,WNW,292,2.3,2.3,91,0.00,CLR,,0.00,WeatherDisplay:10.37,2013-12-23 04:21:00,
2013-12-22 22:24:00,20.8,18.6,28.88,WNW,292,2.3,2.3,91,0.00,CLR,,0.00,WeatherDisplay:10.37,2013-12-23 04:24:00,
2013-12-22 22:25:00,20.8,18.6,28.88,WNW,292,2.3,2.3,91,0.00,CLR,,0.00,WeatherDisplay:10.37,2013-12-23 04:25:00,
2013-12-22 22:26:00,21.0,18.8,28.88,NW,315,2.3,2.3,91,0.00,CLR,,0.00,WeatherDisplay:10.37,2013-12-23 04:26:00,
2013-12-22 22:29:00,21.0,18.8,28.88,NW,315,1.4,1.4,91,0.00,CLR,,0.00,WeatherDisplay:10.37,2013-12-23 04:29:00,
2013-12-22 22:30:00,21.0,18.8,28.88,WNW,292,2.4,2.4,91,0.00,CLR,,0.00,WeatherDisplay:10.37,2013-12-23 04:30:00,
2013-12-22 22:31:00,21.0,18.8,28.88,WNW,292,2.3,2.3,91,0.00,CLR,,0.00,WeatherDisplay:10.37,2013-12-23 04:31:00,
2013-12-22 22:32:00,21.0,18.8,28.88,NW,315,2.3,2.3,91,0.00,CLR,,0.00,WeatherDisplay:10.37,2013-12-23 04:32:00,
2013-12-22 22:35:00,21.0,18.8,28.88,WNW,292,2.2,2.2,91,0.00,CLR,,0.00,WeatherDisplay:10.37,2013-12-23 04:35:00,
2013-12-22 22:36:00,21.0,18.8,28.88,WNW,292,2.3,2.3,91,0.00,CLR,,0.00,WeatherDisplay:10.37,2013-12-23 04:36:00,
2013-12-22 22:37:00,21.2,19.0,28.88,WNW,292,2.3,2.3,91,0.00,CLR,,0.00,WeatherDisplay:10.37,2013-12-23 04:37:00,
2013-12-22 22:40:00,21.2,19.0,28.88,WNW,292,2.3,2.3,91,0.00,CLR,,0.00,WeatherDisplay:10.37,2013-12-23 04:40:00,
2013-12-22 22:41:00,21.2,19.0,28.88,WNW,292,2.6,2.6,91,0.00,CLR,,0.00,WeatherDisplay:10.37,2013-12-23 04:41:00,
2013-12-22 22:42:00,21.2,19.0,28.88,WNW,292,2.3,2.3,91,0.00,CLR,,0.00,WeatherDisplay:10.37,2013-12-23 04:42:00,
2013-12-22 22:45:00,21.2,19.0,28.88,WNW,292,2.3,2.3,91,0.00,CLR,,0.00,WeatherDisplay:10.37,2013-12-23 04:45:00,
2013-12-22 22:46:00,21.2,19.0,28.88,WNW,292,2.4,2.4,91,0.00,CLR,,0.00,WeatherDisplay:10.37,2013-12-23 04:46:00,
2013-12-22 22:47:00,21.2,19.0,28.88,WNW,292,2.3,2.3,91,0.00,CLR,,0.00,WeatherDisplay:10.37,2013-12-23 04:47:00,
2013-12-22 22:50:00,21.4,19.2,28.88,WNW,292,2.3,2.3,91,0.00,CLR,,0.00,WeatherDisplay:10.37,2013-12-23 04:50:00,
2013-12-22 22:51:00,21.4,19.2,28.88,WNW,292,2.3,2.3,91,0.00,CLR,,0.00,WeatherDisplay:10.37,2013-12-23 04:51:00,
2013-12-22 22:52:00,21.4,19.2,28.88,WNW,292,2.3,2.3,91,0.00,CLR,,0.00,WeatherDisplay:10.37,2013-12-23 04:52:00,
2013-12-22 22:55:00,21.4,19.2,28.88,NW,315,3.5,3.5,91,0.00,CLR,,0.00,WeatherDisplay:10.37,2013-12-23 04:55:00,
2013-12-22 22:56:00,21.4,19.2,28.88,NW,315,3.5,3.5,91,0.00,CLR,,0.00,WeatherDisplay:10.37,2013-12-23 04:56:00,
2013-12-22 22:57:00,21.4,19.2,28.88,NW,315,1.2,1.2,91,0.00,CLR,,0.00,WeatherDisplay:10.37,2013-12-23 04:57:00,
2013-12-22 23:00:00,21.6,19.3,28.88,NW,315,1.6,1.6,91,0.00,CLR,,0.00,WeatherDisplay:10.37,2013-12-23 05:00:00,
2013-12-22 23:01:00,21.6,19.3,28.88,NW,315,1.4,1.4,91,0.00,CLR,,0.00,WeatherDisplay:10.37,2013-12-23 05:01:00,
2013-12-22 23:03:00,21.6,19.3,28.88,NW,315,1.6,1.6,91,0.00,CLR,,0.00,WeatherDisplay:10.37,2013-12-23 05:03:00,
2013-12-22 23:06:00,21.6,19.3,28.88,WNW,292,2.3,2.3,91,0.00,CLR,,0.00,WeatherDisplay:10.37,2013-12-23 05:06:00,
2013-12-22 23:07:00,21.7,19.5,28.88,WNW,292,2.3,2.3,91,0.00,CLR,,0.00,WeatherDisplay:10.37,2013-12-23 05:07:00,
2013-12-22 23:09:00,21.7,19.5,28.88,WNW,292,1.2,0.0,91,0.00,CLR,,0.00,WeatherDisplay:10.37,2013-12-23 05:09:00,
2013-12-22 23:11:00,21.7,19.5,28.88,WNW,292,2.0,2.0,91,0.00,CLR,,0.00,WeatherDisplay:10.37,2013-12-23 05:11:00,
2013-12-22 23:12:00,21.7,19.5,28.88,WNW,292,2.3,2.3,91,0.00,CLR,,0.00,WeatherDisplay:10.37,2013-12-23 05:12:00,
2013-12-22 23:14:00,21.7,19.5,28.88,West,270,2.3,2.3,91,0.00,CLR,,0.00,WeatherDisplay:10.37,2013-12-23 05:14:00,
2013-12-22 23:16:00,21.7,19.5,28.88,West,270,2.3,2.3,91,0.00,CLR,,0.00,WeatherDisplay:10.37,2013-12-23 05:16:00,
2013-12-22 23:17:00,21.7,19.5,28.88,West,270,2.3,2.3,91,0.00,CLR,,0.00,WeatherDisplay:10.37,2013-12-23 05:17:00,
2013-12-22 23:20:00,21.9,19.7,28.88,West,270,2.0,2.0,91,0.00,CLR,,0.00,WeatherDisplay:10.37,2013-12-23 05:20:00,
2013-12-22 23:21:00,21.9,19.7,28.88,West,270,2.3,2.3,91,0.00,CLR,,0.00,WeatherDisplay:10.37,2013-12-23 05:21:00,
2013-12-22 23:22:00,21.9,19.7,28.88,West,270,2.3,2.3,91,0.00,CLR,,0.00,WeatherDisplay:10.37,2013-12-23 05:22:00,
2013-12-22 23:25:00,21.7,19.5,28.88,WNW,292,2.3,2.3,91,0.00,CLR,,0.00,WeatherDisplay:10.37,2013-12-23 05:25:00,
2013-12-22 23:26:00,21.7,19.5,28.88,WNW,292,2.3,2.3,91,0.00,CLR,,0.00,WeatherDisplay:10.37,2013-12-23 05:26:00,
2013-12-22 23:27:00,21.7,19.5,28.88,WNW,292,1.2,1.2,91,0.00,CLR,,0.00,WeatherDisplay:10.37,2013-12-23 05:27:00,
2013-12-22 23:31:00,21.7,19.5,28.88,WNW,292,2.3,2.3,91,0.00,CLR,,0.00,WeatherDisplay:10.37,2013-12-23 05:31:00,
2013-12-22 23:32:00,21.7,19.5,28.88,WNW,292,2.3,2.3,91,0.00,CLR,,0.00,WeatherDisplay:10.37,2013-12-23 05:32:00,
2013-12-22 23:33:00,21.7,19.5,28.88,WNW,292,2.3,2.3,91,0.00,CLR,,0.00,WeatherDisplay:10.37,2013-12-23 05:33:00,
2013-12-22 23:36:00,21.7,19.5,28.88,WNW,292,3.6,3.6,91,0.00,CLR,,0.00,WeatherDisplay:10.37,2013-12-23 05:36:00,
2013-12-22 23:37:00,21.9,20.0,28.88,NW,315,3.5,3.5,92,0.00,CLR,,0.00,WeatherDisplay:10.37,2013-12-23 05:37:00,
2013-12-22 23:38:00,21.9,20.0,28.88,WNW,292,2.6,2.6,92,0.00,CLR,,0.00,WeatherDisplay:10.37,2013-12-23 05:38:00,
2013-12-22 23:41:00,21.9,20.0,28.91,NW,315,4.6,4.6,92,0.00,CLR,,0.00,WeatherDisplay:10.37,2013-12-23 05:41:00,
2013-12-22 23:42:00,21.9,20.0,28.91,NW,315,3.5,3.5,92,0.00,CLR,,0.00,WeatherDisplay:10.37,2013-12-23 05:42:00,
2013-12-22 23:43:00,21.9,20.0,28.91,WNW,292,3.5,3.5,92,0.00,CLR,,0.00,WeatherDisplay:10.37,2013-12-23 05:43:00,
2013-12-22 23:47:00,21.9,20.0,28.91,NW,315,5.8,5.8,92,0.00,CLR,,0.00,WeatherDisplay:10.37,2013-12-23 05:47:00,
2013-12-22 23:48:00,21.9,20.0,28.91,WNW,292,5.8,5.8,92,0.00,CLR,,0.00,WeatherDisplay:10.37,2013-12-23 05:48:00,
2013-12-22 23:49:00,21.9,20.0,28.91,NW,315,4.0,4.0,92,0.00,CLR,,0.00,WeatherDisplay:10.37,2013-12-23 05:49:00,
2013-12-22 23:52:00,21.9,19.7,28.91,West,270,3.6,3.6,91,0.00,CLR,,0.00,WeatherDisplay:10.37,2013-12-23 05:52:00,
2013-12-22 23:53:00,21.9,19.7,28.91,WNW,292,3.5,3.5,91,0.00,CLR,,0.00,WeatherDisplay:10.37,2013-12-23 05:53:00,
2013-12-22 23:54:00,21.9,19.7,28.91,West,270,3.5,3.5,91,0.00,CLR,,0.00,WeatherDisplay:10.37,2013-12-23 05:54:00,
2013-12-22 23:57:00,21.7,19.5,28.91,West,270,3.5,3.5,91,0.00,CLR,,0.00,WeatherDisplay:10.37,2013-12-23 05:57:00,
2013-12-22 23:58:00,21.7,19.5,28.91,WNW,292,3.5,3.5,91,0.00,CLR,,0.00,WeatherDisplay:10.37,2013-12-23 05:58:00,
2013-12-22 23:59:00,21.7,19.5,28.91,WNW,292,4.9,4.9,91,0.00,CLR,,0.00,WeatherDisplay:10.37,2013-12-23 05:59:00,